Ship Status Report: callsign 000000

sailwx.info

Track history (hours):
 
Tides and Currents Weather Stations Pressure Air Temp Water Temp Dewpoint Dewpoint Depression Visibility Wind Speed Wind Dir Waves Ship Positions

Callsign 000000 (name unknown)

Last reported at 2015-Feb-28 22:34 UTC. Time now 2015-Feb-28 23:04 UTC.
Position N 31°21' E 121°31'.

Type: Fishing. MMSI: 200007452.

Date/timePositionNaut miles runAvg speedWind from/ knotsBaromVisibWave heightAir tempDewpointWater temp
2015-Feb-28 22:34N 31°21' E 121°31'36192.0
2015-Feb-28 22:33N 31°21' E 121°27'610225.4
2015-Feb-28 22:33N 31°19' E 121°34'67265365.3
2015-Feb-28 22:33N 22°18' E 114°07'3646977.0
2015-Feb-28 22:30N 25°58' E 119°26'3689673.1
2015-Feb-28 22:27N 23°04' E 113°29'658723.0
2015-Feb-28 21:33N 31°24' E 121°31'44517.2
2015-Feb-28 21:33N 31°21' E 121°27'6701206396.2
2015-Feb-28 21:33N 22°18' E 114°07'67232246.9
2015-Feb-28 21:31N 31°19' E 121°34'65610055.9
2015-Feb-28 21:28N 23°04' E 113°29'3685761.8
2015-Feb-28 21:24N 25°58' E 119°26'341391.4
2015-Feb-28 20:31N 31°21' E 121°27'6169.0
2015-Feb-28 20:29N 31°19' E 121°34'65619212.4
2015-Feb-28 20:27N 23°04' E 113°29'3685996.4
2015-Feb-28 20:24N 25°58' E 119°26'341403.6
2015-Feb-28 19:33N 31°19' E 121°34'6192.9
2015-Feb-28 19:31N 31°21' E 121°27'34112645.6
2015-Feb-28 19:30N 25°58' E 119°26'3689535.2
2015-Feb-28 19:27N 23°04' E 113°29'654724.4
2015-Feb-28 18:33N 31°21' E 121°27'64090.1
2015-Feb-28 18:33N 31°19' E 121°34'3406038.0
2015-Feb-28 18:30N 25°58' E 119°26'3689399.9
2015-Feb-28 18:27N 23°04' E 113°29'654725.3
2015-Feb-28 17:33N 31°21' E 121°27'53044365.6
2015-Feb-28 17:33N 22°35' E 120°18'52961375.9
2015-Feb-28 17:32N 31°19' E 121°34'3408946.5
2015-Feb-28 17:30N 25°58' E 119°26'36315950.8
2015-Feb-28 17:28N 22°20' E 114°08'57851.9
2015-Feb-28 17:24N 23°04' E 113°29'2470.7
2015-Feb-28 17:04N 22°42' E 113°41'6651297.4
2015-Feb-28 16:33N 31°21' E 121°27'6204.5
2015-Feb-28 16:31N 31°19' E 121°34'34012380.6
2015-Feb-28 16:30N 25°58' E 119°26'3689467.2
2015-Feb-28 16:27N 23°04' E 113°29'18534.4
2015-Feb-28 16:25N 22°47' E 113°37'3647314.7
2015-Feb-28 16:22N 22°43' E 120°12'3383008.3
2015-Feb-28 16:16N 22°19' E 114°07'671955.9
2015-Feb-28 15:34N 31°19' E 121°34'67286398.4
2015-Feb-28 15:33N 22°18' E 114°07'482827.3
2015-Feb-28 15:32N 22°55' E 113°34'472052.0
2015-Feb-28 15:31N 22°19' E 114°07'670100452.1
2015-Feb-28 15:30N 31°21' E 121°27'34139567.0
2015-Feb-28 15:30N 25°58' E 119°26'3681539.3
2015-Feb-28 15:15N 23°04' E 113°29'3 3.6
2015-Feb-28 14:33N 23°02' E 113°31'657182004.5
2015-Feb-28 14:33N 31°19' E 121°34'672127324.9
2015-Feb-28 14:33N 22°18' E 114°07'01029.0
2015-Feb-28 14:33N 22°18' E 114°08'670160830.6
2015-Feb-28 14:33N 31°21' E 121°27'6547526.2
2015-Feb-28 14:27N 23°04' E 113°29'3681411.5
2015-Feb-28 14:12N 25°58' E 119°26'341531.4
2015-Feb-28 13:33N 31°21' E 121°27'655261865.0
2015-Feb-28 13:33N 23°06' E 113°27'617025.8
2015-Feb-28 13:33N 22°18' E 114°08'0514.5
2015-Feb-28 13:33N 22°18' E 114°07'58667.1
2015-Feb-28 13:27N 23°04' E 113°29'3681021.0
2015-Feb-28 13:06N 25°58' E 119°26'340633.8
2015-Feb-28 12:34N 31°19' E 121°34'62556.3
2015-Feb-28 12:33N 31°21' E 121°27'655294600.2
2015-Feb-28 12:33N 23°06' E 113°27'6018148.7
2015-Feb-28 12:33N 22°18' E 114°08'072.5
2015-Feb-28 12:33N 22°18' E 114°07'3657171.1
2015-Feb-28 12:30N 25°58' E 119°26'3689267.7
2015-Feb-28 12:27N 23°04' E 113°29'3 3.4
2015-Feb-28 11:34N 23°06' E 113°27'657118211.3
2015-Feb-28 11:33N 31°19' E 121°34'67263661.5
2015-Feb-28 11:33N 22°18' E 114°07'6701206705.7
2015-Feb-28 11:33N 31°21' E 121°27'65438608.5
2015-Feb-28 11:31N 23°04' E 113°30'36812736.7
2015-Feb-28 11:30N 25°58' E 119°26'341362.0
2015-Feb-28 10:33N 31°21' E 121°27'655589196.0
2015-Feb-28 10:33N 23°06' E 113°27'32217818.5
2015-Feb-28 10:32N 24°47' E 119°01'32019840.7
2015-Feb-28 10:31N 23°04' E 113°30'58681.5
2015-Feb-28 10:26N 22°18' E 114°07'55925.6
2015-Feb-28 10:23N 23°02' E 113°31'8121.5
2015-Feb-28 10:18N 22°53' E 113°30'36810105.4
2015-Feb-28 10:16N 22°46' E 120°09'1961123.7
2015-Feb-28 10:06N 25°58' E 119°26'202372.4
2015-Feb-28 09:33N 22°40' E 120°13'37579488.9
2015-Feb-28 09:33N 23°06' E 113°27'5754.9
2015-Feb-28 09:32N 23°02' E 113°31'656393323.3
2015-Feb-28 09:32N 31°21' E 121°27'3417763.7
2015-Feb-28 09:30N 25°58' E 119°26'36526781.5
2015-Feb-28 09:29N 22°18' E 114°07'67615029.3
2015-Feb-28 09:26N 31°49' E 120°55'6579894.1
2015-Feb-28 09:22N 23°04' E 113°30'3 3.9
2015-Feb-28 08:33N 23°06' E 113°27'65540634.8
2015-Feb-28 08:32N 31°21' E 121°27'670201119.1
2015-Feb-28 08:32N 22°18' E 114°07'583839.0
2015-Feb-28 08:31N 23°04' E 113°30'3153.5
2015-Feb-28 08:30N 23°02' E 113°31'6611190541.1
2015-Feb-28 08:30N 31°54' E 120°53'66619024.4
2015-Feb-28 08:28N 23°03' E 113°21'3765224.4
2015-Feb-28 08:24N 25°58' E 119°26'368440.4
2015-Feb-28 07:34N 23°02' E 113°31'6582367114.9
2015-Feb-28 07:34N 31°19' E 121°34'658263150.6
2015-Feb-28 07:33N 23°05' E 113°26'11436.2
2015-Feb-28 07:33N 23°06' E 113°27'65558920.5
2015-Feb-28 07:33N 31°21' E 121°27'65426462.0
2015-Feb-28 07:31N 23°04' E 113°30'6621533.4
2015-Feb-28 07:05N 32°00' E 120°47'57107.6
2015-Feb-28 06:34N 31°19' E 121°34'657197009.6
2015-Feb-28 06:33N 23°06' E 113°27'65562020.7
2015-Feb-28 06:33N 31°21' E 121°27'65625651.7
2015-Feb-28 06:31N 23°02' E 113°31'36647044.8
2015-Feb-28 06:31N 25°57' E 119°23'365931.2
2015-Feb-28 06:07N 23°04' E 113°30'0 0.1
2015-Feb-28 05:33N 23°04' E 113°30'311553.6
2015-Feb-28 05:33N 23°06' E 113°27'65521042.7
2015-Feb-28 05:31N 31°21' E 121°27'61203.0
2015-Feb-28 05:31N 31°19' E 121°34'656787488.8
2015-Feb-28 05:31N 23°04' E 113°30'3653382.5
2015-Feb-28 05:25N 25°57' E 119°23'342400.7
2015-Feb-28 04:33N 31°21' E 121°27'655471357.0
2015-Feb-28 04:33N 23°06' E 113°27'3549.6
2015-Feb-28 04:33N 23°04' E 113°30'65621283.4
2015-Feb-28 04:31N 31°19' E 121°34'6561181224.8
2015-Feb-28 04:31N 23°04' E 113°30'36545371.3
2015-Feb-28 04:31N 25°57' E 119°23'74534.6
2015-Feb-28 04:22N 24°46' E 119°03'1492346.7
2015-Feb-28 04:19N 22°34' E 120°18'381505.6
2015-Feb-28 03:33N 23°06' E 113°27'323387154.9
2015-Feb-28 03:33N 24°45' E 119°02'41648297.9
2015-Feb-28 03:33N 31°19' E 121°34'66816.9
2015-Feb-28 03:33N 31°21' E 121°27'6543685.6
2015-Feb-28 03:22N 23°04' E 113°30'656809.6
2015-Feb-28 02:34N 31°19' E 121°34'657472877.2
2015-Feb-28 02:33N 23°06' E 113°27'32338.5
2015-Feb-28 02:33N 23°04' E 113°30'3209609.7
2015-Feb-28 02:31N 24°45' E 119°02'32096108.0
2015-Feb-28 02:31N 23°04' E 113°30'65445290.4
2015-Feb-28 02:30N 31°21' E 121°27'65821945.0
2015-Feb-28 02:28N 23°03' E 113°24'416.1
2015-Feb-28 02:12N 23°04' E 113°29'0 0.5
2015-Feb-28 01:33N 23°04' E 113°29'654214159.7
2015-Feb-28 01:33N 31°21' E 121°27'6551178409.2
2015-Feb-28 01:33N 23°06' E 113°27'395.2
2015-Feb-28 01:31N 23°04' E 113°30'65620193.8
2015-Feb-28 01:29N 31°19' E 121°34'65717507.0
2015-Feb-28 01:27N 23°04' E 113°29'0 2.6
2015-Feb-28 01:24N 23°04' E 113°29'4 4.3
2015-Feb-28 00:33N 23°06' E 113°25'42183.3
2015-Feb-28 00:33N 23°04' E 113°29'65451216.9
2015-Feb-28 00:33N 31°21' E 121°27'65155.6
2015-Feb-28 00:33N 31°19' E 121°34'65715150.2
2015-Feb-28 00:30N 23°04' E 113°29'0 4.0
2015-Feb-28 00:27N 23°04' E 113°29'014.3
2015-Feb-28 00:27N 23°04' E 113°29'3221036.0
2015-Feb-28 00:08N 24°47' E 119°03'323556.9
2015-Feb-27 23:34N 23°06' E 113°27'31512.4
2015-Feb-27 23:33N 23°04' E 113°29'657168818.0
2015-Feb-27 23:33N 31°19' E 121°34'65843074.3
2015-Feb-27 23:32N 23°01' E 113°31'65627463.1
2015-Feb-27 23:31N 31°21' E 121°27'6545773.8
2015-Feb-27 23:24N 23°04' E 113°29'3217125.8
2015-Feb-27 23:21N 24°47' E 119°01'3215659.5
2015-Feb-27 23:18N 23°04' E 113°29'55264.7
2015-Feb-27 23:06N 22°11' E 113°41'6921295.3
2015-Feb-27 22:34N 31°19' E 121°34'657118173.4
2015-Feb-27 22:33N 23°04' E 113°29'5513144.0
2015-Feb-27 22:33N 22°12' E 113°45'688154699.1
2015-Feb-27 22:33N 31°21' E 121°27'654336231.7
2015-Feb-27 22:33N 23°05' E 113°29'615100626.0
2015-Feb-27 22:32N 29°42' E 122°14'6157828.9
2015-Feb-27 22:27N 23°04' E 113°29'0 0.5
2015-Feb-27 22:15N 23°04' E 113°29'0 0.7
2015-Feb-27 22:03N 23°04' E 113°29'0 0.1
2015-Feb-27 21:34N 23°04' E 113°29'1198.4
2015-Feb-27 21:33N 23°05' E 113°29'6562361135.3
2015-Feb-27 21:33N 31°19' E 121°34'674134761.7
2015-Feb-27 21:33N 22°18' E 114°04'56405.5
2015-Feb-27 21:25N 23°04' E 113°29'0 0.3
2015-Feb-27 21:03N 23°04' E 113°29'0 0.2
2015-Feb-27 20:34N 23°04' E 113°29'165.2
2015-Feb-27 20:33N 23°05' E 113°29'6549087.3
2015-Feb-27 20:28N 31°21' E 121°27'65450123.9
2015-Feb-27 20:27N 23°04' E 113°29'0 7.1
2015-Feb-27 20:27N 23°04' E 113°29'6567672.6
2015-Feb-27 20:22N 31°19' E 121°34'6572474.8
2015-Feb-27 20:06N 23°04' E 113°29'0 0.1
2015-Feb-27 19:34N 23°04' E 113°29'654336559.9
2015-Feb-27 19:33N 31°21' E 121°27'654235360.5
2015-Feb-27 19:33N 23°05' E 113°29'6562361118.6
2015-Feb-27 19:33N 31°19' E 121°34'6576404.9
2015-Feb-27 19:27N 23°04' E 113°29'0 0.9
2015-Feb-27 19:15N 23°04' E 113°29'0 7.0
2015-Feb-27 19:15N 23°04' E 113°29'67437.0
2015-Feb-27 19:06N 22°11' E 114°14'6741254.5
2015-Feb-27 18:34N 31°19' E 121°34'656147569.9
2015-Feb-27 18:33N 23°05' E 113°29'1148.6
2015-Feb-27 18:33N 23°04' E 113°29'65423559.5
2015-Feb-27 18:31N 31°21' E 121°27'65410564.2
2015-Feb-27 18:27N 23°04' E 113°29'0 0.8
2015-Feb-27 18:15N 23°04' E 113°29'1 1.6
2015-Feb-27 17:33N 23°05' E 113°29'656393519.8
2015-Feb-27 17:33N 31°19' E 121°34'65759085.6
2015-Feb-27 17:33N 23°04' E 113°29'65417451.4
2015-Feb-27 17:30N 31°21' E 121°27'65413939.7
2015-Feb-27 17:27N 23°04' E 113°29'0 1.0
2015-Feb-27 17:24N 23°04' E 113°29'0 0.1
2015-Feb-27 16:34N 23°04' E 113°29'654392676.8
2015-Feb-27 16:33N 31°21' E 121°27'61460.8
2015-Feb-27 16:33N 31°19' E 121°34'656168651.3
2015-Feb-27 16:33N 23°05' E 113°29'110.2
2015-Feb-27 16:27N 23°04' E 113°29'0 7.1
2015-Feb-27 16:27N 23°04' E 113°29'0535.1
2015-Feb-27 16:27N 23°04' E 113°29'1 1.2
2015-Feb-27 15:33N 23°05' E 113°29'656393519.8
2015-Feb-27 15:33N 31°19' E 121°34'6572363409.1
2015-Feb-27 15:33N 23°04' E 113°29'6542355919.1
2015-Feb-27 15:33N 31°21' E 121°27'6547774.9
2015-Feb-27 15:27N 23°04' E 113°29'0 0.2
2015-Feb-27 15:12N 23°04' E 113°29'6561023.9
2015-Feb-27 14:34N 31°19' E 121°34'656124389.1
2015-Feb-27 14:33N 23°04' E 113°29'1282.5
2015-Feb-27 14:33N 23°05' E 113°29'65412453.7
2015-Feb-27 14:30N 31°21' E 121°27'6547316.6
2015-Feb-27 14:24N 23°04' E 113°29'0 6.9
2015-Feb-27 14:24N 23°04' E 113°29'656780.7
2015-Feb-27 13:34N 31°19' E 121°34'6562363325.3
2015-Feb-27 13:34N 23°04' E 113°29'1123.7
2015-Feb-27 13:33N 23°05' E 113°29'65452302.3
2015-Feb-27 13:32N 31°21' E 121°27'6548151.6
2015-Feb-27 13:27N 23°04' E 113°29'013.7
2015-Feb-27 13:27N 23°04' E 113°29'130.7
2015-Feb-27 13:26N 23°04' E 113°30'1 1.6
2015-Feb-27 12:33N 23°05' E 113°29'1108.1
2015-Feb-27 12:33N 23°04' E 113°29'65478533.6
2015-Feb-27 12:32N 31°21' E 121°27'698.0
2015-Feb-27 12:29N 31°19' E 121°34'656138966.2
2015-Feb-27 12:29N 23°04' E 113°30'143.9
2015-Feb-27 12:28N 23°04' E 113°29'0 1.9
2015-Feb-27 12:24N 23°04' E 113°29'0 0.1
2015-Feb-27 11:34N 23°04' E 113°29'654147251.5
2015-Feb-27 11:33N 31°21' E 121°27'65478457.0
2015-Feb-27 11:33N 23°05' E 113°29'65642927.6
2015-Feb-27 11:32N 31°19' E 121°34'6568951.9
2015-Feb-27 11:27N 23°04' E 113°29'0 1.5
2015-Feb-27 11:23N 23°04' E 113°29'1 4.3
2015-Feb-27 11:14N 23°04' E 113°30'656983.1
2015-Feb-27 10:34N 31°19' E 121°34'62561.4
2015-Feb-27 10:33N 31°21' E 121°27'65476000.2
2015-Feb-27 10:33N 23°04' E 113°29'1730.3
2015-Feb-27 10:33N 23°05' E 113°29'110.2
2015-Feb-27 10:27N 23°04' E 113°29'0 0.5
2015-Feb-27 10:20N 23°04' E 113°29'1 6.4
2015-Feb-27 10:14N 23°04' E 113°30'1 2.2
2015-Feb-27 09:33N 23°05' E 113°29'1807.7
2015-Feb-27 09:33N 23°04' E 113°29'654102427.3
2015-Feb-27 09:33N 31°21' E 121°27'65484141.9
2015-Feb-27 09:33N 23°04' E 113°29'0 7.2
2015-Feb-27 09:32N 23°04' E 113°29'656196909.5
2015-Feb-27 09:32N 31°19' E 121°34'65612769.3
2015-Feb-27 09:29N 23°04' E 113°30'1 0.7
2015-Feb-27 08:34N 23°04' E 113°29'1178.4
2015-Feb-27 08:33N 23°05' E 113°29'65475928.3
2015-Feb-27 08:33N 31°21' E 121°27'65448076.6
2015-Feb-27 08:32N 23°04' E 113°29'65647261.1
2015-Feb-27 08:31N 31°19' E 121°34'65615962.4
2015-Feb-27 08:29N 23°04' E 113°30'1 2.7
2015-Feb-27 08:12N 23°04' E 113°29'0 0.0
2015-Feb-27 07:33N 23°04' E 113°29'4430.6
2015-Feb-27 07:33N 23°03' E 113°25'4347.2
2015-Feb-27 07:32N 23°04' E 113°29'110.5
2015-Feb-27 07:29N 23°04' E 113°30'65625132.3
2015-Feb-27 07:27N 31°19' E 121°34'6569567.0
2015-Feb-27 07:23N 23°04' E 113°29'0 0.1
2015-Feb-27 06:34N 23°04' E 113°29'65678775.8
2015-Feb-27 06:33N 31°19' E 121°34'65636354.5
2015-Feb-27 06:32N 23°04' E 113°29'810074.0
2015-Feb-27 06:32N 23°03' E 113°20'661594610.7
2015-Feb-27 06:32N 31°21' E 121°27'107698.6
2015-Feb-27 06:23N 29°42' E 122°12'4405466.6
2015-Feb-27 06:18N 22°34' E 120°19'531719.0
2015-Feb-27 05:34N 31°21' E 121°27'654392643.4
2015-Feb-27 05:33N 23°04' E 113°29'65694526.0
2015-Feb-27 05:33N 31°19' E 121°34'656337615.4
2015-Feb-27 05:33N 23°04' E 113°29'0 2.1
2015-Feb-27 05:31N 23°04' E 113°29'14255.9
2015-Feb-27 05:28N 23°03' E 113°14'14110.8
2015-Feb-27 05:20N 23°04' E 113°29'21174.6
2015-Feb-27 05:13N 22°44' E 113°28'2030.8
2015-Feb-27 04:33N 23°04' E 113°29'205978.2
2015-Feb-27 04:33N 22°45' E 113°24'673121053.7
2015-Feb-27 04:32N 31°21' E 121°27'65425608.8
2015-Feb-27 04:31N 23°04' E 113°29'65617505.9
2015-Feb-27 04:29N 31°19' E 121°34'67053619.0
2015-Feb-27 04:28N 23°01' E 113°10'18301.8
2015-Feb-27 04:24N 23°04' E 113°29'0 0.7
2015-Feb-27 04:20N 23°04' E 113°29'0 0.1
2015-Feb-27 03:33N 23°04' E 113°29'654336572.3
2015-Feb-27 03:33N 31°21' E 121°27'65448076.6
2015-Feb-27 03:32N 23°04' E 113°29'0 3.0
2015-Feb-27 03:31N 23°04' E 113°29'65611043.5
2015-Feb-27 03:27N 31°19' E 121°34'65613426.9
2015-Feb-27 03:24N 23°04' E 113°29'1774.0
2015-Feb-27 03:11N 22°51' E 113°18'1320.8
2015-Feb-27 02:33N 23°02' E 113°24'53340.4
2015-Feb-27 02:33N 23°04' E 113°29'072.8
2015-Feb-27 02:33N 23°04' E 113°29'65410758.1
2015-Feb-27 02:30N 31°21' E 121°27'6259.4
2015-Feb-27 02:28N 31°19' E 121°34'6566138.5
2015-Feb-27 02:22N 23°04' E 113°29'163464.8
2015-Feb-27 02:22N 22°54' E 113°15'16232.0
2015-Feb-27 02:17N 23°04' E 113°29'12757.6
2015-Feb-27 02:16N 23°04' E 113°16'1216.6
2015-Feb-27 01:33N 23°04' E 113°29'017.5
2015-Feb-27 01:33N 23°04' E 113°29'654124002.1
2015-Feb-27 01:33N 31°21' E 121°27'654181214.4
2015-Feb-27 01:32N 23°04' E 113°29'6555241.2
2015-Feb-27 01:25N 31°22' E 121°28'65513402.3
2015-Feb-27 01:22N 23°04' E 113°29'656118167.5
2015-Feb-27 01:22N 31°19' E 121°34'6565371.1
2015-Feb-27 01:14N 23°04' E 113°29'0 0.2
2015-Feb-27 00:33N 23°04' E 113°29'65662192.8
2015-Feb-27 00:33N 31°19' E 121°34'610245.4
2015-Feb-27 00:33N 31°21' E 121°27'654196315.6
2015-Feb-27 00:32N 23°04' E 113°29'0 2.9
2015-Feb-27 00:31N 23°04' E 113°29'0 0.4
2015-Feb-27 00:21N 23°04' E 113°29'0 1.5
2015-Feb-27 00:11N 23°04' E 113°29'6541036.5
2015-Feb-26 23:33N 31°21' E 121°27'654589004.9
2015-Feb-26 23:33N 23°04' E 113°29'0111.2
2015-Feb-26 23:33N 23°04' E 113°29'656118167.9
2015-Feb-26 23:33N 31°19' E 121°34'65610940.2
2015-Feb-26 23:29N 23°04' E 113°29'0 0.7
2015-Feb-26 23:19N 23°04' E 113°29'6636800.4
2015-Feb-26 23:13N 32°00' E 120°49'6631005.7
2015-Feb-26 22:34N 23°04' E 113°29'038.0
2015-Feb-26 22:33N 23°04' E 113°29'65431413.0
2015-Feb-26 22:32N 31°21' E 121°27'55025704.5
2015-Feb-26 22:31N 23°10' E 116°49'1847805.3
2015-Feb-26 22:29N 23°04' E 113°29'0 0.1
2015-Feb-26 21:34N 23°04' E 113°29'654214176.4
2015-Feb-26 21:33N 31°21' E 121°27'654107090.6
2015-Feb-26 21:33N 23°04' E 113°29'656131296.8
2015-Feb-26 21:33N 31°19' E 121°34'65634237.1
2015-Feb-26 21:32N 23°04' E 113°30'1 3.3
2015-Feb-26 21:19N 23°04' E 113°29'0 0.1
2015-Feb-26 20:34N 23°04' E 113°29'65431835.3
2015-Feb-26 20:32N 31°21' E 121°27'65440620.6
2015-Feb-26 20:31N 23°04' E 113°29'6561942.0
2015-Feb-26 20:11N 31°19' E 121°34'657966.7
2015-Feb-26 19:30N 23°04' E 113°29'65418264.3
2015-Feb-26 19:28N 31°21' E 121°27'65410757.7
2015-Feb-26 19:25N 23°04' E 113°29'656236330.1
2015-Feb-26 19:24N 31°19' E 121°34'6569971.2
2015-Feb-26 19:20N 23°04' E 113°29'654837.8
2015-Feb-26 18:34N 31°21' E 121°27'61859.2
2015-Feb-26 18:33N 31°19' E 121°34'6561181658.2
2015-Feb-26 18:33N 23°04' E 113°29'120.3
2015-Feb-26 18:32N 23°04' E 113°30'1 3.4
2015-Feb-26 18:20N 23°04' E 113°29'0 2.7
2015-Feb-26 18:19N 23°04' E 113°29'0 0.6
2015-Feb-26 18:12N 23°04' E 113°29'0 0.0
2015-Feb-26 17:33N 23°04' E 113°29'099.7
2015-Feb-26 17:33N 23°04' E 113°29'6541177976.4
2015-Feb-26 17:33N 31°21' E 121°27'6568.3
2015-Feb-26 17:33N 31°19' E 121°34'65634237.1
2015-Feb-26 17:32N 23°04' E 113°30'118.9
2015-Feb-26 17:29N 23°04' E 113°29'0 0.0
2015-Feb-26 16:33N 23°04' E 113°29'656590785.5
2015-Feb-26 16:33N 31°19' E 121°34'6562363283.8
2015-Feb-26 16:33N 23°04' E 113°29'0 7.6
2015-Feb-26 16:32N 23°04' E 113°29'65448077.0
2015-Feb-26 16:32N 31°21' E 121°27'65414278.1
2015-Feb-26 16:29N 23°04' E 113°29'654709.8
2015-Feb-26 15:34N 31°21' E 121°27'654336541.6
2015-Feb-26 15:33N 23°04' E 113°29'6561181571.0
2015-Feb-26 15:33N 31°19' E 121°34'656787761.3
2015-Feb-26 15:33N 23°04' E 113°29'22547656.4
2015-Feb-26 15:33N 23°39' E 117°31'22520776.8
2015-Feb-26 15:32N 23°04' E 113°29'0 4.5
2015-Feb-26 15:31N 23°04' E 113°29'0 4.3
2015-Feb-26 15:29N 23°04' E 113°29'231251.2
2015-Feb-26 14:33N 23°43' E 117°38'231138845.8
2015-Feb-26 14:33N 23°04' E 113°29'013.8
2015-Feb-26 14:33N 23°04' E 113°29'65687533.0
2015-Feb-26 14:33N 31°19' E 121°34'656262569.4
2015-Feb-26 14:32N 23°04' E 113°29'0 3.9
2015-Feb-26 14:29N 23°04' E 113°29'0 1.2
2015-Feb-26 14:19N 23°04' E 113°29'656867.9
2015-Feb-26 13:34N 31°19' E 121°34'656181791.7
2015-Feb-26 13:33N 23°04' E 113°29'23552885.9
2015-Feb-26 13:33N 23°50' E 117°40'23521152.7
2015-Feb-26 13:32N 23°04' E 113°29'0 3.0
2015-Feb-26 13:31N 23°04' E 113°29'65452351.3
2015-Feb-26 13:30N 31°21' E 121°27'65427391.0
2015-Feb-26 13:29N 23°04' E 113°29'0 3.9
2015-Feb-26 13:24N 23°04' E 113°29'656774.3
2015-Feb-26 12:34N 31°19' E 121°34'656181790.5
2015-Feb-26 12:33N 23°04' E 113°29'24226387.7
2015-Feb-26 12:33N 23°54' E 117°47'488439260.2
2015-Feb-26 12:33N 31°21' E 121°27'654123985.4
2015-Feb-26 12:32N 23°04' E 113°29'0 2.8
2015-Feb-26 12:31N 23°04' E 113°29'0180.9
2015-Feb-26 12:31N 23°04' E 113°29'0 1.8
2015-Feb-26 12:21N 23°04' E 113°29'0 0.1
2015-Feb-26 11:33N 23°04' E 113°29'65634753.4
2015-Feb-26 11:32N 31°19' E 121°34'65652516.4
2015-Feb-26 11:31N 23°04' E 113°29'6546316.2
2015-Feb-26 11:25N 31°21' E 121°27'6546150.9
2015-Feb-26 11:19N 23°04' E 113°29'0 1.3
2015-Feb-26 11:08N 23°04' E 113°29'6561130.6
2015-Feb-26 10:33N 31°19' E 121°34'63427.4
2015-Feb-26 10:33N 31°21' E 121°27'654181238.5
2015-Feb-26 10:33N 23°04' E 113°29'0 1.9
2015-Feb-26 10:31N 23°04' E 113°29'0 0.6
2015-Feb-26 10:24N 23°04' E 113°29'7367.4
2015-Feb-26 10:23N 22°58' E 113°34'72883.8
2015-Feb-26 10:23N 23°04' E 113°29'0 2.9
2015-Feb-26 10:19N 23°04' E 113°29'25617713.8
2015-Feb-26 10:18N 24°07' E 117°60'256345.3
2015-Feb-26 09:33N 23°04' E 113°29'656139008.8
2015-Feb-26 09:33N 31°19' E 121°34'656196942.4
2015-Feb-26 09:33N 23°04' E 113°29'26058583.8
2015-Feb-26 09:33N 24°11' E 118°04'46731100.9
2015-Feb-26 09:32N 31°21' E 121°27'65442838.6
2015-Feb-26 09:31N 23°04' E 113°29'0 1.4
2015-Feb-26 09:22N 23°04' E 113°29'0 4.5
2015-Feb-26 09:19N 23°04' E 113°29'0 0.1
2015-Feb-26 08:33N 23°04' E 113°29'654261774.8
2015-Feb-26 08:33N 31°21' E 121°27'65090.2
2015-Feb-26 08:33N 31°19' E 121°34'46166360.1
2015-Feb-26 08:33N 24°15' E 118°11'268160516.0
2015-Feb-26 08:33N 23°04' E 113°29'0 2.5
2015-Feb-26 08:31N 23°04' E 113°29'0147.2
2015-Feb-26 08:31N 23°04' E 113°29'0 1.4
2015-Feb-26 08:22N 23°04' E 113°29'0 0.1
2015-Feb-26 07:33N 23°04' E 113°29'0135.3
2015-Feb-26 07:33N 23°04' E 113°29'65687530.6
2015-Feb-26 07:33N 31°19' E 121°34'65622721.9
2015-Feb-26 07:31N 23°04' E 113°29'65439930.2
2015-Feb-26 07:30N 31°21' E 121°27'6554828.4
2015-Feb-26 07:22N 23°04' E 113°29'075.4
2015-Feb-26 07:22N 23°04' E 113°29'0 0.3
2015-Feb-26 06:33N 23°04' E 113°29'0109.2
2015-Feb-26 06:33N 23°04' E 113°29'65648231.1
2015-Feb-26 06:33N 31°19' E 121°34'6893.4
2015-Feb-26 06:32N 31°21' E 121°27'65431001.4
2015-Feb-26 06:31N 23°04' E 113°29'6547408.7
2015-Feb-26 06:26N 31°21' E 121°27'65411491.5
2015-Feb-26 06:22N 23°04' E 113°29'018.8
2015-Feb-26 06:22N 23°04' E 113°29'654810.5
2015-Feb-26 05:33N 31°21' E 121°27'654471169.2
2015-Feb-26 05:33N 23°04' E 113°29'018.2
2015-Feb-26 05:33N 23°04' E 113°29'0 2.9
2015-Feb-26 05:31N 23°04' E 113°29'018.8
2015-Feb-26 05:31N 23°04' E 113°29'65654960.9
2015-Feb-26 05:30N 31°19' E 121°34'61868.0
2015-Feb-26 05:30N 31°21' E 121°27'6544798.5
2015-Feb-26 05:22N 23°04' E 113°29'0 0.3
2015-Feb-26 04:33N 23°04' E 113°29'018.2
2015-Feb-26 04:33N 23°04' E 113°29'473189.6
2015-Feb-26 04:32N 22°23' E 113°54'67351550.4
2015-Feb-26 04:31N 31°21' E 121°27'65481241.3
2015-Feb-26 04:31N 23°04' E 113°29'65641459.3
2015-Feb-26 04:30N 31°19' E 121°34'694.0
2015-Feb-26 04:26N 31°21' E 121°27'6549576.2
2015-Feb-26 04:22N 23°04' E 113°29'0 2.1
2015-Feb-26 04:19N 23°04' E 113°29'655856.5
2015-Feb-26 03:33N 31°21' E 121°27'655471641.2
2015-Feb-26 03:33N 23°05' E 113°27'655147375.1
2015-Feb-26 03:33N 31°21' E 121°27'6397.3
2015-Feb-26 03:32N 31°19' E 121°34'65656265.3
2015-Feb-26 03:31N 23°04' E 113°29'0 0.1
2015-Feb-26 03:24N 23°04' E 113°29'0 5.6
2015-Feb-26 03:22N 23°04' E 113°29'431058.6
2015-Feb-26 03:19N 22°27' E 113°53'435351.0
2015-Feb-26 03:19N 23°04' E 113°29'911.7
2015-Feb-26 02:33N 23°03' E 113°19'661132179.4
2015-Feb-26 02:33N 31°21' E 121°27'6297.7
2015-Feb-26 02:32N 31°19' E 121°34'67275618.3
2015-Feb-26 02:31N 22°27' E 113°53'4319429.7
2015-Feb-26 02:31N 23°04' E 113°29'65428383.6
2015-Feb-26 02:30N 31°21' E 121°27'6547204.8
2015-Feb-26 02:24N 23°04' E 113°29'0 6.5
2015-Feb-26 02:22N 23°04' E 113°29'656815.5
2015-Feb-26 01:34N 31°19' E 121°34'656262583.7
2015-Feb-26 01:33N 23°04' E 113°29'65427394.9
2015-Feb-26 01:32N 31°21' E 121°27'65458896.0
2015-Feb-26 01:31N 23°04' E 113°29'6547117.8
2015-Feb-26 01:26N 31°21' E 121°27'6549941.3
2015-Feb-26 01:22N 23°04' E 113°29'3128026.6
2015-Feb-26 01:19N 24°46' E 118°52'3102061.0
2015-Feb-26 01:10N 22°55' E 113°36'32590.2
2015-Feb-26 01:07N 22°27' E 113°53'438632.9
2015-Feb-26 01:07N 23°04' E 113°29'316568.1
2015-Feb-26 00:33N 24°51' E 118°55'413743423.6
2015-Feb-26 00:33N 31°21' E 121°27'654471225.1
2015-Feb-26 00:33N 23°04' E 113°29'65621101.0
2015-Feb-26 00:32N 31°19' E 121°34'656107417.0
2015-Feb-26 00:31N 23°04' E 113°29'045.5
2015-Feb-26 00:31N 23°04' E 113°29'65445307.4
2015-Feb-26 00:30N 31°21' E 121°27'6716373.6
2015-Feb-26 00:24N 22°27' E 113°52'421453.7
2015-Feb-26 00:22N 23°04' E 113°29'0 0.1
2015-Feb-25 23:33N 23°04' E 113°29'656214854.0
2015-Feb-25 23:33N 31°19' E 121°34'6466.8
2015-Feb-25 23:32N 31°21' E 121°27'0 5.8
2015-Feb-25 23:32N 31°21' E 121°27'65448078.0
2015-Feb-25 23:31N 23°04' E 113°29'036.2
2015-Feb-25 23:31N 23°04' E 113°29'0 1.7
2015-Feb-25 23:22N 23°04' E 113°29'657808.9
2015-Feb-25 22:33N 31°19' E 121°34'66849.3
2015-Feb-25 22:33N 31°21' E 121°27'65416829.7
2015-Feb-25 22:31N 23°04' E 113°29'65419966.3
2015-Feb-25 22:29N 31°21' E 121°27'6545259.0
2015-Feb-25 22:21N 23°04' E 113°29'0 3.0
2015-Feb-25 22:19N 23°04' E 113°29'0 0.8
2015-Feb-25 22:10N 23°04' E 113°29'6571073.3
2015-Feb-25 21:33N 31°19' E 121°34'6765.0
2015-Feb-25 21:33N 31°21' E 121°27'0 2.6
2015-Feb-25 21:31N 31°21' E 121°27'654130896.6
2015-Feb-25 21:31N 23°04' E 113°29'0 1.6
2015-Feb-25 21:21N 23°04' E 113°29'0 2.0
2015-Feb-25 21:19N 23°04' E 113°29'0 0.8
2015-Feb-25 21:10N 23°04' E 113°29'0 0.2
2015-Feb-25 20:33N 23°04' E 113°29'654294516.5
2015-Feb-25 20:33N 31°21' E 121°27'412742040.4
2015-Feb-25 20:33N 24°51' E 118°58'41267413.5
2015-Feb-25 20:33N 31°19' E 121°34'65619371.1
2015-Feb-25 20:31N 23°04' E 113°29'656687.6
2015-Feb-25 19:34N 31°19' E 121°34'62054.0
2015-Feb-25 19:33N 31°21' E 121°27'65415399.6
2015-Feb-25 19:31N 23°04' E 113°29'0 2.7
2015-Feb-25 19:24N 23°04' E 113°29'0 0.3
2015-Feb-25 19:07N 23°04' E 113°29'6541100.0
2015-Feb-25 18:31N 31°21' E 121°27'6203.4
2015-Feb-25 18:30N 31°19' E 121°34'6567673.1
2015-Feb-25 18:24N 23°04' E 113°29'0 1.6
2015-Feb-25 18:22N 23°04' E 113°29'016.4
2015-Feb-25 18:22N 23°04' E 113°29'0140.0
2015-Feb-25 18:22N 23°04' E 113°29'117654.5
2015-Feb-25 18:22N 23°03' E 113°18'662198534.4
2015-Feb-25 18:22N 31°21' E 121°27'654816.9
2015-Feb-25 17:33N 23°04' E 113°29'6541178045.8
2015-Feb-25 17:33N 31°21' E 121°27'0 2.0
2015-Feb-25 17:32N 31°21' E 121°27'65446192.6
2015-Feb-25 17:31N 23°04' E 113°29'045.5
2015-Feb-25 17:31N 23°04' E 113°29'85493.4
2015-Feb-25 17:31N 23°02' E 113°21'718.9
2015-Feb-25 17:07N 23°04' E 113°29'65610645.6
2015-Feb-25 17:03N 31°19' E 121°34'0 0.0
2015-Feb-25 16:34N 31°19' E 121°34'656262573.1
2015-Feb-25 16:33N 23°04' E 113°29'65456094.4
2015-Feb-25 16:33N 31°21' E 121°27'0 2.0
2015-Feb-25 16:31N 31°21' E 121°27'6544322.6
2015-Feb-25 16:22N 23°04' E 113°29'018.5
2015-Feb-25 16:22N 23°04' E 113°29'0140.0
2015-Feb-25 16:22N 23°04' E 113°29'0 0.3
2015-Feb-25 15:33N 23°04' E 113°29'656236315.8
2015-Feb-25 15:33N 31°19' E 121°34'657337696.1
2015-Feb-25 15:33N 23°04' E 113°29'658118385.8
2015-Feb-25 15:33N 31°23' E 121°30'3658.3
2015-Feb-25 15:32N 31°21' E 121°27'65437998.9
2015-Feb-25 15:31N 23°04' E 113°29'0 0.5
2015-Feb-25 15:22N 23°04' E 113°29'0 3.9
2015-Feb-25 15:19N 23°04' E 113°29'6562647.6
2015-Feb-25 15:04N 32°01' E 120°34'6561283.4
2015-Feb-25 14:33N 23°04' E 113°29'654336564.3
2015-Feb-25 14:33N 31°21' E 121°27'65673822.7
2015-Feb-25 14:33N 23°01' E 113°31'658197450.4
2015-Feb-25 14:33N 31°19' E 121°34'65627801.5
2015-Feb-25 14:31N 23°04' E 113°29'045.5
2015-Feb-25 14:31N 23°04' E 113°29'65819892.4
2015-Feb-25 14:29N 32°00' E 120°39'6585759.7
2015-Feb-25 14:22N 23°04' E 113°29'0 0.1
2015-Feb-25 13:33N 23°04' E 113°29'656337571.2
2015-Feb-25 13:33N 31°19' E 121°34'660169801.5
2015-Feb-25 13:33N 22°56' E 113°33'9263.2
2015-Feb-25 13:31N 23°04' E 113°29'045.5
2015-Feb-25 13:31N 23°04' E 113°29'6639818.7
2015-Feb-25 13:27N 32°01' E 120°48'6638143.3
2015-Feb-25 13:22N 23°04' E 113°29'319229469.5
2015-Feb-25 13:22N 24°53' E 118°57'411508.4
2015-Feb-25 12:33N 31°19' E 121°34'5016422.1
2015-Feb-25 12:33N 31°55' E 120°53'66960178.0
2015-Feb-25 12:32N 22°52' E 113°34'31947775.9
2015-Feb-25 12:32N 24°51' E 118°57'413371480.0
2015-Feb-25 12:32N 31°21' E 121°27'411739768.4
2015-Feb-25 12:32N 24°53' E 118°57'31926064.6
2015-Feb-25 12:31N 23°04' E 113°29'033.3
2015-Feb-25 12:31N 23°04' E 113°29'0 2.8
2015-Feb-25 12:24N 23°04' E 113°29'0 1.0
2015-Feb-25 12:19N 23°04' E 113°29'3191346.9
2015-Feb-25 12:05N 24°53' E 118°57'319610.8
2015-Feb-25 11:33N 23°04' E 113°29'31823370.3
2015-Feb-25 11:33N 24°50' E 118°57'413212646.8
2015-Feb-25 11:32N 31°21' E 121°27'6821.3
2015-Feb-25 11:32N 31°19' E 121°34'65667521.6
2015-Feb-25 11:31N 23°04' E 113°29'3202827.6
2015-Feb-25 11:25N 24°47' E 119°00'3196866.0
2015-Feb-25 11:22N 22°47' E 113°38'66710867.9
2015-Feb-25 11:18N 31°47' E 120°59'658883.1
2015-Feb-25 10:33N 23°04' E 113°29'65681487.9
2015-Feb-25 10:33N 31°19' E 121°34'41671261.8
2015-Feb-25 10:33N 24°46' E 119°01'41668073.3
2015-Feb-25 10:32N 31°21' E 121°27'65433655.2
2015-Feb-25 10:31N 23°04' E 113°29'3194180.3
2015-Feb-25 10:27N 24°46' E 119°00'319974.4
2015-Feb-25 10:07N 23°04' E 113°29'0 0.1
2015-Feb-25 09:33N 23°04' E 113°29'656787716.7
2015-Feb-25 09:33N 31°19' E 121°34'61369.3
2015-Feb-25 09:33N 31°21' E 121°27'201060.9
2015-Feb-25 09:32N 31°39' E 121°15'429103010.5
2015-Feb-25 09:32N 24°46' E 119°01'32033886.8
2015-Feb-25 09:31N 23°04' E 113°29'017.6
2015-Feb-25 09:31N 23°04' E 113°29'0180.9
2015-Feb-25 09:31N 23°04' E 113°29'659688.5
2015-Feb-25 08:33N 31°32' E 121°22'114027.9
2015-Feb-25 08:33N 31°21' E 121°27'65416950.4
2015-Feb-25 08:31N 23°04' E 113°29'0147.2
2015-Feb-25 08:31N 23°04' E 113°29'65634754.0
2015-Feb-25 08:30N 31°19' E 121°34'41613502.9
2015-Feb-25 08:28N 24°46' E 118°60'124.3
2015-Feb-25 08:25N 24°46' E 119°01'4032164.8
2015-Feb-25 08:14N 31°07' E 121°28'64411369.8
2015-Feb-25 08:10N 23°04' E 113°29'6471053.9
2015-Feb-25 07:33N 31°11' E 121°28'10604.9
2015-Feb-25 07:32N 31°19' E 121°34'61207.7
2015-Feb-25 07:32N 31°21' E 121°27'4168228.4
2015-Feb-25 07:29N 24°46' E 119°01'4196919.3
2015-Feb-25 07:25N 31°24' E 121°31'65838207.9
2015-Feb-25 07:24N 23°04' E 113°29'0 1.5
2015-Feb-25 07:22N 23°04' E 113°29'018.5
2015-Feb-25 07:22N 23°04' E 113°29'0144.8
2015-Feb-25 07:22N 23°04' E 113°29'31954660.7
2015-Feb-25 07:21N 24°46' E 118°60'1 0.9
2015-Feb-25 06:33N 24°46' E 119°00'41653465.9
2015-Feb-25 06:32N 31°21' E 121°27'508637.4
2015-Feb-25 06:32N 31°60' E 120°49'66333128.0
2015-Feb-25 06:31N 23°04' E 113°29'0147.2
2015-Feb-25 06:31N 23°04' E 113°29'0 2.2
2015-Feb-25 06:24N 23°04' E 113°29'0 1.5
2015-Feb-25 06:22N 23°04' E 113°29'65611360.9
2015-Feb-25 06:19N 31°19' E 121°34'4163271.1
2015-Feb-25 06:11N 24°46' E 118°60'319508.1
2015-Feb-25 05:33N 23°04' E 113°29'6561181575.0
2015-Feb-25 05:33N 31°19' E 121°34'41562319.9
2015-Feb-25 05:33N 24°46' E 119°00'3209359.9
2015-Feb-25 05:31N 23°04' E 113°29'31915722.8
2015-Feb-25 05:30N 24°46' E 118°59'41674939.3
2015-Feb-25 05:29N 31°21' E 121°27'6545543.2
2015-Feb-25 05:22N 23°04' E 113°29'031.5
2015-Feb-25 05:22N 23°04' E 113°29'0 0.3
2015-Feb-25 04:33N 23°04' E 113°29'656787716.7
2015-Feb-25 04:33N 31°19' E 121°34'41510525.9
2015-Feb-25 04:31N 24°47' E 118°60'4159971.6
2015-Feb-25 04:28N 31°21' E 121°27'6545980.0
2015-Feb-25 04:22N 23°04' E 113°29'0144.8
2015-Feb-25 04:22N 23°04' E 113°29'0 1.0
2015-Feb-25 04:10N 23°04' E 113°29'0 0.1
2015-Feb-25 03:34N 23°04' E 113°29'65673851.1
2015-Feb-25 03:33N 31°19' E 121°34'416136048.8
2015-Feb-25 03:33N 24°47' E 118°59'41662399.3
2015-Feb-25 03:32N 31°21' E 121°27'65433655.0
2015-Feb-25 03:31N 23°04' E 113°29'035.7
2015-Feb-25 03:31N 23°04' E 113°29'31963764.3
2015-Feb-25 03:30N 24°47' E 118°59'4161106.9
2015-Feb-25 03:08N 31°20' E 121°32'6561142.8
2015-Feb-25 02:33N 23°04' E 113°29'318114535.0
2015-Feb-25 02:33N 24°46' E 118°59'41674920.4
2015-Feb-25 02:33N 31°19' E 121°34'6181.7
2015-Feb-25 02:31N 31°21' E 121°27'654196344.7
2015-Feb-25 02:31N 23°04' E 113°29'0142.4
2015-Feb-25 02:31N 23°04' E 113°29'31919143.6
2015-Feb-25 02:30N 24°47' E 118°60'4166542.4
2015-Feb-25 02:26N 31°20' E 121°32'65610364.9
2015-Feb-25 02:22N 23°04' E 113°29'6566042.4
2015-Feb-25 02:16N 32°01' E 120°35'6084.2
2015-Feb-25 01:33N 31°22' E 121°28'41648301.5
2015-Feb-25 01:33N 24°46' E 119°01'4161495983.4
2015-Feb-25 01:33N 31°19' E 121°34'41521024.6
2015-Feb-25 01:31N 24°47' E 119°01'32054873.2
2015-Feb-25 01:31N 23°04' E 113°29'31915102.5
2015-Feb-25 01:30N 24°46' E 118°59'4439609.4
2015-Feb-25 01:27N 32°00' E 120°41'6597600.0
2015-Feb-25 01:22N 23°04' E 113°29'0140.0
2015-Feb-25 01:22N 23°04' E 113°29'0 1.5
2015-Feb-25 01:12N 23°04' E 113°29'6571012.9
2015-Feb-25 00:33N 31°23' E 121°30'657394184.5
2015-Feb-25 00:33N 23°04' E 113°29'6561181587.3
2015-Feb-25 00:33N 31°19' E 121°34'65615650.9
2015-Feb-25 00:31N 23°04' E 113°29'32022583.9
2015-Feb-25 00:30N 24°46' E 119°01'1 9.4
2015-Feb-25 00:23N 24°47' E 119°01'3215686.2
2015-Feb-25 00:19N 23°04' E 113°29'023.8
2015-Feb-25 00:19N 23°04' E 113°29'3191264.8
2015-Feb-25 00:04N 24°45' E 119°00'441870.5
2015-Feb-24 23:33N 31°55' E 120°53'661793242.2
2015-Feb-24 23:33N 23°04' E 113°29'65694532.7
2015-Feb-24 23:33N 31°19' E 121°34'415186764.2
2015-Feb-24 23:33N 24°47' E 118°59'420188983.6
2015-Feb-24 23:33N 31°26' E 121°29'42132915.7
2015-Feb-24 23:32N 24°46' E 119°01'32016934.3
2015-Feb-24 23:31N 23°04' E 113°29'0 1.6
2015-Feb-24 23:22N 23°04' E 113°29'022.1
2015-Feb-24 23:22N 23°04' E 113°29'320575185.7
2015-Feb-24 23:22N 24°45' E 119°00'435538.3
2015-Feb-24 22:33N 31°48' E 120°56'6572366444.4
2015-Feb-24 22:33N 23°04' E 113°29'318286513.0
2015-Feb-24 22:33N 24°44' E 118°59'43768358.9
2015-Feb-24 22:33N 31°56' E 120°14'782939.5
2015-Feb-24 22:31N 31°19' E 121°34'12266.3
2015-Feb-24 22:29N 31°29' E 121°26'4235830.7
2015-Feb-24 22:24N 24°46' E 118°59'3191341.4
2015-Feb-24 22:10N 23°04' E 113°29'032.3
2015-Feb-24 22:10N 23°04' E 113°29'6421058.0
2015-Feb-24 21:33N 31°56' E 120°13'437142983.3
2015-Feb-24 21:33N 24°44' E 118°59'41875205.7
2015-Feb-24 21:33N 31°19' E 121°34'6563390.7
2015-Feb-24 21:21N 23°04' E 113°29'0 6.7
2015-Feb-24 21:19N 23°04' E 113°29'3182974.8
2015-Feb-24 21:12N 24°45' E 118°59'3194393.5
2015-Feb-24 21:08N 23°04' E 113°29'6581142.9
2015-Feb-24 20:33N 31°32' E 121°20'65936523.0
2015-Feb-24 20:32N 23°05' E 113°26'32133937.0
2015-Feb-24 20:32N 24°45' E 118°59'4365884.4
2015-Feb-24 20:27N 31°56' E 120°13'783329.3
2015-Feb-24 20:26N 31°19' E 121°34'65624364.0
2015-Feb-24 20:24N 23°04' E 113°29'3197909.8
2015-Feb-24 20:22N 24°46' E 118°59'318143298.0
2015-Feb-24 20:22N 23°04' E 113°29'659818.8
2015-Feb-24 19:33N 31°33' E 121°20'185492.5
2015-Feb-24 19:33N 31°19' E 121°34'7825426.0
2015-Feb-24 19:33N 31°56' E 120°13'598922.6
2015-Feb-24 19:33N 31°34' E 121°18'4265330.1
2015-Feb-24 19:28N 24°46' E 118°59'3185357.8
2015-Feb-24 19:24N 23°04' E 113°29'659766.2
2015-Feb-24 18:33N 31°37' E 121°16'56101386.1
2015-Feb-24 18:33N 31°56' E 120°13'64220445.6
2015-Feb-24 18:31N 23°04' E 113°29'65620540.1
2015-Feb-24 18:29N 31°22' E 121°30'7548.2
2015-Feb-24 18:28N 31°28' E 121°28'42395188.6
2015-Feb-24 18:28N 24°46' E 118°59'3185382.9
2015-Feb-24 18:24N 23°04' E 113°29'0 0.6
2015-Feb-24 18:19N 23°04' E 113°29'6566713.3
2015-Feb-24 18:13N 31°19' E 121°34'656987.1
2015-Feb-24 17:33N 23°04' E 113°29'657262943.1
2015-Feb-24 17:33N 31°23' E 121°30'51147.8
2015-Feb-24 17:33N 31°19' E 121°34'782689.4
2015-Feb-24 17:31N 31°56' E 120°13'7488699.2
2015-Feb-24 17:31N 31°22' E 121°30'656131229.1
2015-Feb-24 17:31N 23°04' E 113°29'3192135.9
2015-Feb-24 17:22N 24°46' E 118°59'435538.2
2015-Feb-24 16:33N 31°56' E 120°13'786079.5
2015-Feb-24 16:33N 31°19' E 121°34'6992.8
2015-Feb-24 16:32N 31°22' E 121°28'297.3
2015-Feb-24 16:31N 31°22' E 121°30'4188126.6
2015-Feb-24 16:28N 24°46' E 118°59'3199477.5
2015-Feb-24 16:26N 23°04' E 113°29'010.0
2015-Feb-24 16:24N 23°04' E 113°29'0 0.3
2015-Feb-24 16:19N 23°04' E 113°29'6592747.4
2015-Feb-24 16:05N 31°45' E 121°03'3364.2
2015-Feb-24 15:33N 31°22' E 121°30'4188.9
2015-Feb-24 15:32N 31°19' E 121°34'66618.4
2015-Feb-24 15:32N 31°22' E 121°28'7212993.0
2015-Feb-24 15:32N 31°56' E 120°13'43554054.5
2015-Feb-24 15:31N 24°46' E 118°59'3197351.1
2015-Feb-24 15:29N 23°04' E 113°29'0 1.5
2015-Feb-24 15:19N 23°04' E 113°29'0 0.1
2015-Feb-24 15:12N 23°04' E 113°29'656991.3
2015-Feb-24 14:33N 31°19' E 121°34'417749771.9
2015-Feb-24 14:33N 24°46' E 118°59'43641264.5
2015-Feb-24 14:32N 31°56' E 120°13'725099.3
2015-Feb-24 14:31N 31°22' E 121°28'296.0
2015-Feb-24 14:30N 31°22' E 121°30'6567157.5
2015-Feb-24 14:24N 23°04' E 113°29'0 0.2
2015-Feb-24 14:22N 23°04' E 113°29'6593372.4
2015-Feb-24 14:10N 31°52' E 120°53'6591066.5
2015-Feb-24 13:33N 23°04' E 113°29'656393859.6
2015-Feb-24 13:33N 31°19' E 121°34'6283.6
2015-Feb-24 13:32N 31°22' E 121°28'65542852.0
2015-Feb-24 13:31N 23°04' E 113°29'65614228.5
2015-Feb-24 13:28N 31°22' E 121°30'471550.7
2015-Feb-24 13:27N 31°56' E 120°52'4484469.1
2015-Feb-24 13:21N 24°40' E 118°53'312396.0
2015-Feb-24 12:33N 23°04' E 113°29'65694525.6
2015-Feb-24 12:33N 31°19' E 121°34'6177.3
2015-Feb-24 12:31N 31°22' E 121°28'50744.5
2015-Feb-24 12:27N 31°59' E 120°49'66220383.0
2015-Feb-24 12:25N 23°04' E 113°29'65614949.0
2015-Feb-24 12:22N 31°22' E 121°30'656803.6
2015-Feb-24 11:33N 23°04' E 113°29'65678769.7
2015-Feb-24 11:33N 31°19' E 121°34'6294.5
2015-Feb-24 11:32N 31°22' E 121°28'6555819.0
2015-Feb-24 11:25N 23°04' E 113°29'65615043.8
2015-Feb-24 11:22N 31°22' E 121°30'6628024.8
2015-Feb-24 11:17N 23°02' E 113°22'755.9
2015-Feb-24 11:10N 23°04' E 113°29'3 5.2
2015-Feb-24 10:33N 23°04' E 113°26'31855.6
2015-Feb-24 10:33N 23°04' E 113°29'656590779.2
2015-Feb-24 10:33N 31°19' E 121°34'6244.3
2015-Feb-24 10:32N 31°22' E 121°28'65542852.9
2015-Feb-24 10:31N 23°04' E 113°29'65913786.2
2015-Feb-24 10:28N 31°25' E 121°30'6592189.3
2015-Feb-24 10:10N 23°04' E 113°29'0 0.1
2015-Feb-24 09:33N 23°04' E 113°29'65694525.3
2015-Feb-24 09:33N 31°19' E 121°34'6562362357.0
2015-Feb-24 09:33N 23°04' E 113°30'120.5
2015-Feb-24 09:31N 23°04' E 113°29'65727191.5
2015-Feb-24 09:29N 31°60' E 120°39'513182.1
2015-Feb-24 09:28N 31°28' E 121°26'65911681.9
2015-Feb-24 09:25N 23°04' E 113°29'0 0.1
2015-Feb-24 08:33N 23°04' E 113°29'656590787.5
2015-Feb-24 08:33N 31°19' E 121°34'656787452.3
2015-Feb-24 08:33N 23°04' E 113°30'65426471.9
2015-Feb-24 08:32N 31°22' E 121°28'10565.0
2015-Feb-24 08:31N 31°31' E 121°22'6587243.9
2015-Feb-24 08:25N 23°04' E 113°29'18575.7
2015-Feb-24 08:23N 22°47' E 113°36'18762.0
2015-Feb-24 08:22N 23°04' E 113°29'64113337.5
2015-Feb-24 08:19N 31°56' E 120°13'5627814.5
2015-Feb-24 08:15N 22°34' E 120°19'379550.3
2015-Feb-24 07:33N 23°04' E 113°29'658592446.7
2015-Feb-24 07:33N 31°33' E 121°19'658789682.0
2015-Feb-24 07:33N 23°04' E 113°30'378135922.4
2015-Feb-24 07:33N 22°33' E 120°18'37117138.7
2015-Feb-24 07:32N 22°47' E 113°36'66634745.0
2015-Feb-24 07:31N 31°19' E 121°34'6567117.7
2015-Feb-24 07:25N 23°04' E 113°29'0 1.4
2015-Feb-24 07:22N 23°04' E 113°29'6552772.9
2015-Feb-24 07:08N 31°22' E 121°28'6551143.0
2015-Feb-24 06:33N 23°04' E 113°29'1425.2
2015-Feb-24 06:33N 23°04' E 113°30'65473625.1
2015-Feb-24 06:33N 31°22' E 121°28'6770.5
2015-Feb-24 06:32N 31°19' E 121°34'5347911.6
2015-Feb-24 06:28N 22°30' E 120°17'371445190.8
2015-Feb-24 06:28N 22°47' E 113°36'66934427.1
2015-Feb-24 06:27N 31°37' E 121°15'6598018.7
2015-Feb-24 06:22N 23°04' E 113°29'020.3
2015-Feb-24 06:22N 23°04' E 113°29'0 0.1
2015-Feb-24 05:33N 23°04' E 113°29'1850.5
2015-Feb-24 05:33N 23°04' E 113°30'374122485.0
2015-Feb-24 05:33N 22°32' E 120°14'53376809.0
2015-Feb-24 05:33N 31°22' E 121°28'65521426.9
2015-Feb-24 05:31N 23°04' E 113°29'18253.0
2015-Feb-24 05:27N 22°47' E 113°36'66921904.1
2015-Feb-24 05:25N 31°42' E 121°08'6593399.0
2015-Feb-24 05:13N 23°04' E 113°29'65616075.3
2015-Feb-24 05:11N 31°19' E 121°34'6561054.6
2015-Feb-24 04:33N 23°04' E 113°30'65462000.1
2015-Feb-24 04:33N 31°22' E 121°28'664140674.2
2015-Feb-24 04:32N 22°47' E 113°36'666399567.0
2015-Feb-24 04:32N 31°19' E 121°34'52946469.3
2015-Feb-24 04:32N 22°35' E 120°12'3723427.5
2015-Feb-24 04:25N 23°04' E 113°29'0 4.6
2015-Feb-24 04:24N 23°04' E 113°29'6572731.9
2015-Feb-24 04:10N 31°47' E 120°58'657788656.5
2015-Feb-24 04:10N 23°04' E 113°29'0 0.0
2015-Feb-24 03:33N 23°04' E 113°29'1833.9
2015-Feb-24 03:33N 23°04' E 113°30'6562362373.8
2015-Feb-24 03:33N 31°19' E 121°34'4513383.4
2015-Feb-24 03:33N 31°49' E 120°55'552165721.6
2015-Feb-24 03:33N 22°38' E 120°14'3742875.2
2015-Feb-24 03:25N 23°04' E 113°29'18464.9
2015-Feb-24 03:23N 22°47' E 113°36'6643596.2
2015-Feb-24 03:12N 31°22' E 121°28'65522027.6
2015-Feb-24 03:10N 23°04' E 113°29'6561077.2
2015-Feb-24 02:33N 31°19' E 121°34'5111469.6
2015-Feb-24 02:33N 31°56' E 120°52'66118307.9
2015-Feb-24 02:31N 23°04' E 113°29'65531851.2
2015-Feb-24 02:30N 31°22' E 121°28'6648990.6
2015-Feb-24 02:25N 22°47' E 113°36'181284.5
2015-Feb-24 02:24N 23°04' E 113°29'0 0.2
2015-Feb-24 02:22N 23°04' E 113°29'0 0.0
2015-Feb-24 01:33N 23°04' E 113°29'662238258.7
2015-Feb-24 01:33N 32°00' E 120°47'573820.0
2015-Feb-24 01:32N 31°19' E 121°34'658.9
2015-Feb-24 01:27N 31°22' E 121°28'6558539.8
2015-Feb-24 01:22N 23°04' E 113°29'658805.7
2015-Feb-24 00:33N 31°60' E 120°39'613295.6
2015-Feb-24 00:32N 31°19' E 121°34'65636927.5
2015-Feb-24 00:31N 23°04' E 113°29'0 0.5
2015-Feb-24 00:21N 23°04' E 113°29'0 0.0
2015-Feb-23 23:33N 23°04' E 113°29'655337022.4
2015-Feb-23 23:33N 32°00' E 120°34'6513820.2
2015-Feb-23 23:33N 31°19' E 121°34'65619059.3
2015-Feb-23 23:31N 23°04' E 113°29'6553381.6
2015-Feb-23 23:19N 31°22' E 121°28'655855.8
2015-Feb-23 22:33N 23°04' E 113°29'65628134.7
2015-Feb-23 22:32N 31°19' E 121°34'5447.4
2015-Feb-23 22:31N 31°22' E 121°28'643738.4
2015-Feb-23 22:30N 32°02' E 120°29'654692.2
2015-Feb-23 21:33N 23°04' E 113°29'658789700.8
2015-Feb-23 21:33N 31°24' E 121°31'542.9
2015-Feb-23 21:27N 31°19' E 121°34'6578293.3
2015-Feb-23 21:22N 23°04' E 113°29'0 0.1
2015-Feb-23 20:33N 23°04' E 113°29'65622724.5
2015-Feb-23 20:32N 31°19' E 121°34'0 0.0
2015-Feb-23 19:33N 31°19' E 121°34'6656058.0
2015-Feb-23 19:26N 22°54' E 113°28'1083.2
2015-Feb-23 19:19N 23°04' E 113°29'0 0.5
2015-Feb-23 19:12N 23°04' E 113°29'6561009.1
2015-Feb-23 18:33N 31°19' E 121°34'6149.8
2015-Feb-23 18:31N 31°24' E 121°31'6584333.5
2015-Feb-23 18:22N 23°04' E 113°29'0 0.4
2015-Feb-23 18:09N 23°04' E 113°29'0 0.1
2015-Feb-23 17:33N 23°04' E 113°29'6566439.2
2015-Feb-23 17:27N 31°19' E 121°34'6567385.5
2015-Feb-23 17:22N 23°04' E 113°29'2102.3
2015-Feb-23 17:20N 23°02' E 113°31'657828.8
2015-Feb-23 16:33N 31°19' E 121°34'6148.7
2015-Feb-23 16:31N 31°24' E 121°31'6586287.3
2015-Feb-23 16:24N 23°04' E 113°29'0 0.3
2015-Feb-23 16:07N 23°04' E 113°29'0 0.1
2015-Feb-23 15:33N 23°04' E 113°29'6561181658.8
2015-Feb-23 15:33N 31°19' E 121°34'6563445.1
2015-Feb-23 15:22N 23°04' E 113°29'0 0.1
2015-Feb-23 14:33N 23°04' E 113°29'656787724.9
2015-Feb-23 14:33N 31°19' E 121°34'65616187.4
2015-Feb-23 14:31N 23°04' E 113°29'0 0.1
2015-Feb-23 13:33N 23°04' E 113°29'656157546.1
2015-Feb-23 13:33N 31°19' E 121°34'65617637.0
2015-Feb-23 13:31N 23°04' E 113°29'6591632.8
2015-Feb-23 13:07N 31°39' E 121°14'2645.9
2015-Feb-23 12:33N 31°19' E 121°34'65617768.7
2015-Feb-23 12:31N 23°04' E 113°29'0 0.6
2015-Feb-23 12:24N 23°04' E 113°29'656773.0
2015-Feb-23 11:33N 31°19' E 121°34'656787719.6
2015-Feb-23 11:33N 23°04' E 113°29'0 0.2
2015-Feb-23 11:19N 23°04' E 113°29'062.0
2015-Feb-23 11:19N 23°04' E 113°29'656865.1
2015-Feb-23 10:33N 31°19' E 121°34'656590781.3
2015-Feb-23 10:33N 23°04' E 113°29'111.2
2015-Feb-23 10:30N 23°04' E 113°30'1 4.5
2015-Feb-23 10:22N 23°04' E 113°29'0 1.6
2015-Feb-23 10:19N 23°04' E 113°29'656867.0
2015-Feb-23 09:33N 31°19' E 121°34'656124377.3
2015-Feb-23 09:33N 23°04' E 113°29'0 4.8
2015-Feb-23 09:31N 23°04' E 113°29'65615247.7
2015-Feb-23 09:28N 31°20' E 121°32'65628124.3
2015-Feb-23 09:27N 23°04' E 113°30'1 7.6
2015-Feb-23 09:21N 23°04' E 113°29'0 0.0
2015-Feb-23 08:33N 23°04' E 113°29'6169.1
2015-Feb-23 08:31N 23°02' E 113°23'61018.4
2015-Feb-23 08:31N 23°04' E 113°29'656337626.2
2015-Feb-23 08:31N 31°19' E 121°34'210.0
2015-Feb-23 08:21N 31°20' E 121°32'67343264.5
2015-Feb-23 08:20N 22°27' E 113°53'4355.4
2015-Feb-23 07:33N 23°04' E 113°29'321115718.3
2015-Feb-23 07:33N 24°50' E 119°01'412296466.2
2015-Feb-23 07:33N 31°19' E 121°34'65617637.1
2015-Feb-23 07:31N 23°04' E 113°29'6571840.7
2015-Feb-23 07:09N 31°20' E 121°32'0 0.0
2015-Feb-23 06:33N 31°20' E 121°32'416136090.8
2015-Feb-23 06:33N 24°49' E 118°54'41543964.2
2015-Feb-23 06:33N 31°19' E 121°34'6564679.6
2015-Feb-23 06:24N 23°04' E 113°29'0 0.2
2015-Feb-23 06:10N 23°04' E 113°29'6561080.6
2015-Feb-23 05:33N 31°19' E 121°34'656472665.1
2015-Feb-23 05:33N 23°04' E 113°29'0 1.5
2015-Feb-23 05:31N 23°04' E 113°29'6574243.3
2015-Feb-23 05:22N 31°20' E 121°32'2 2.2
2015-Feb-23 04:33N 31°21' E 121°31'656214708.9
2015-Feb-23 04:33N 23°04' E 113°29'0 1.9
2015-Feb-23 04:31N 23°04' E 113°29'6595812.6
2015-Feb-23 04:24N 31°52' E 120°53'482177.1
2015-Feb-23 04:23N 31°19' E 121°34'5263.6
2015-Feb-23 03:33N 31°57' E 120°51'472008.0
2015-Feb-23 03:32N 31°24' E 121°31'51747.9
2015-Feb-23 03:32N 31°19' E 121°34'65743767.6
2015-Feb-23 03:31N 23°04' E 113°29'0 0.4
2015-Feb-23 03:24N 23°04' E 113°29'656773.8
2015-Feb-23 02:33N 31°19' E 121°34'656787725.2
2015-Feb-23 02:33N 23°04' E 113°29'123281.9
2015-Feb-23 02:33N 23°03' E 113°16'66932097.4
2015-Feb-23 02:32N 32°00' E 120°45'66137785.4
2015-Feb-23 02:31N 23°04' E 113°29'6583319.1
2015-Feb-23 02:19N 31°30' E 121°23'1418.1
2015-Feb-23 01:33N 31°19' E 121°34'199891.6
2015-Feb-23 01:33N 31°34' E 121°19'6594406.4
2015-Feb-23 01:24N 23°04' E 113°29'6659968.2
2015-Feb-23 01:20N 32°02' E 120°50'66527188.1
2015-Feb-23 01:19N 23°04' E 113°29'0 0.1
2015-Feb-23 00:33N 23°04' E 113°29'656107418.6
2015-Feb-23 00:33N 31°19' E 121°34'65618463.7
2015-Feb-23 00:31N 23°04' E 113°29'0 0.1
2015-Feb-22 23:33N 23°04' E 113°29'656157547.2
2015-Feb-22 23:33N 31°19' E 121°34'6563506.5
2015-Feb-22 23:22N 23°04' E 113°29'0 0.1
2015-Feb-22 22:33N 23°04' E 113°29'656139013.2
2015-Feb-22 22:33N 31°19' E 121°34'6563516.9
2015-Feb-22 22:22N 23°04' E 113°29'656812.4
2015-Feb-22 21:33N 31°19' E 121°34'6561181667.1
2015-Feb-22 21:33N 23°04' E 113°29'0 1.8
2015-Feb-22 21:31N 23°04' E 113°29'6592412.5
2015-Feb-22 21:14N 31°45' E 121°03'659959.3
2015-Feb-22 20:33N 23°04' E 113°29'65663874.6
2015-Feb-22 20:33N 31°19' E 121°34'6563624.7
2015-Feb-22 20:22N 23°04' E 113°29'0 0.1
2015-Feb-22 19:33N 23°04' E 113°29'656262593.7
2015-Feb-22 19:33N 31°19' E 121°34'65616881.1
2015-Feb-22 19:31N 23°04' E 113°29'656679.1
2015-Feb-22 18:33N 31°19' E 121°34'6564615.9
2015-Feb-22 18:24N 23°04' E 113°29'0 0.8
2015-Feb-22 18:19N 23°04' E 113°29'0 0.1
2015-Feb-22 17:33N 23°04' E 113°29'656214847.9
2015-Feb-22 17:33N 31°19' E 121°34'44530.9
2015-Feb-22 17:28N 31°48' E 120°55'6574207.1
2015-Feb-22 17:19N 23°04' E 113°29'0 0.1
2015-Feb-22 16:33N 23°04' E 113°29'65648231.5
2015-Feb-22 16:32N 31°19' E 121°34'41117821.3
2015-Feb-22 16:31N 24°53' E 118°57'318163705.6
2015-Feb-22 16:31N 23°04' E 113°29'6623369.8
2015-Feb-22 16:19N 31°57' E 120°52'436571.3
2015-Feb-22 15:33N 24°53' E 118°57'319191350.0
2015-Feb-22 15:33N 23°04' E 113°29'65647266.5
2015-Feb-22 15:32N 31°19' E 121°34'6563704.3
2015-Feb-22 15:22N 23°04' E 113°29'656814.4
2015-Feb-22 14:33N 31°19' E 121°34'411246332.1
2015-Feb-22 14:33N 24°53' E 118°57'319286947.7
2015-Feb-22 14:33N 23°04' E 113°29'0 1.2
2015-Feb-22 14:31N 23°04' E 113°29'656686.2
2015-Feb-22 13:33N 31°19' E 121°34'6562363208.1
2015-Feb-22 13:33N 23°04' E 113°29'319573895.3
2015-Feb-22 13:33N 24°53' E 118°57'3197502.3
2015-Feb-22 13:31N 23°04' E 113°29'319332.8
2015-Feb-22 12:33N 24°53' E 118°57'319382594.6
2015-Feb-22 12:33N 23°04' E 113°29'656181785.2
2015-Feb-22 12:33N 31°19' E 121°34'65618040.8
2015-Feb-22 12:31N 23°04' E 113°29'656685.2
2015-Feb-22 11:33N 31°19' E 121°34'411492664.2
2015-Feb-22 11:33N 24°53' E 118°57'319286949.6
2015-Feb-22 11:33N 23°04' E 113°29'0 1.4
2015-Feb-22 11:31N 23°04' E 113°29'319329.2
2015-Feb-22 10:33N 24°53' E 118°57'319382596.9
2015-Feb-22 10:33N 23°04' E 113°29'656181785.2
2015-Feb-22 10:33N 31°19' E 121°34'65617506.2
2015-Feb-22 10:31N 23°04' E 113°29'656682.2
2015-Feb-22 09:33N 31°19' E 121°34'65618039.6
2015-Feb-22 09:31N 23°04' E 113°29'0 0.6
2015-Feb-22 09:24N 23°04' E 113°29'0 0.1
2015-Feb-22 08:33N 23°04' E 113°29'656181796.9
2015-Feb-22 08:33N 31°19' E 121°34'6562790.2
2015-Feb-22 08:19N 23°04' E 113°29'0 0.1
2015-Feb-22 07:33N 23°04' E 113°29'656196945.3
2015-Feb-22 07:33N 31°19' E 121°34'6562760.9
2015-Feb-22 07:19N 23°04' E 113°29'0 0.1
2015-Feb-22 06:33N 23°04' E 113°29'656181795.6
2015-Feb-22 06:33N 31°19' E 121°34'65617506.3
2015-Feb-22 06:31N 23°04' E 113°29'0 0.1
2015-Feb-22 05:33N 23°04' E 113°29'310139277.9
2015-Feb-22 05:33N 24°47' E 118°48'41962813.7
2015-Feb-22 05:33N 31°19' E 121°34'65621101.2
2015-Feb-22 05:31N 23°04' E 113°29'4 4.0
2015-Feb-22 04:32N 23°03' E 113°25'66041669.4
2015-Feb-22 04:31N 31°19' E 121°34'42111137.3
2015-Feb-22 04:28N 24°43' E 118°55'3143247.3
2015-Feb-22 04:23N 23°04' E 113°29'656794.4
2015-Feb-22 03:33N 31°19' E 121°34'42389565.0
2015-Feb-22 03:33N 24°40' E 118°55'32417404.7
2015-Feb-22 03:32N 23°03' E 113°17'1175.5
2015-Feb-22 03:23N 23°04' E 113°29'313378.0
2015-Feb-22 02:33N 24°40' E 118°54'42325381.5
2015-Feb-22 02:32N 31°19' E 121°34'6574190.6
2015-Feb-22 02:23N 23°04' E 113°29'314364.6
2015-Feb-22 01:31N 24°42' E 118°55'42116287.4
2015-Feb-22 01:29N 31°19' E 121°34'422443.9
2015-Feb-22 00:32N 24°41' E 118°55'42289387.5
2015-Feb-22 00:32N 31°19' E 121°34'65694533.7
2015-Feb-22 00:32N 23°04' E 113°29'656672.2
2015-Feb-21 23:33N 31°19' E 121°34'42656838.2
2015-Feb-21 23:33N 24°38' E 118°52'310745.5
2015-Feb-21 23:08N 23°04' E 113°29'0 0.4
2015-Feb-21 23:04N 23°04' E 113°29'6561304.2
2015-Feb-21 22:33N 31°19' E 121°34'42412116.5
2015-Feb-21 22:31N 24°39' E 118°54'3125063.9
2015-Feb-21 22:28N 23°04' E 113°29'0 0.3
2015-Feb-21 22:23N 23°04' E 113°29'656798.7
2015-Feb-21 21:33N 31°19' E 121°34'426109535.6
2015-Feb-21 21:33N 24°38' E 118°52'31012275.7
2015-Feb-21 21:32N 23°04' E 113°29'0 0.1
2015-Feb-21 21:16N 23°04' E 113°29'656910.4
2015-Feb-21 20:32N 31°19' E 121°34'6568234.3
2015-Feb-21 20:28N 23°04' E 113°29'0 0.8
2015-Feb-21 20:23N 23°04' E 113°29'657799.8
2015-Feb-21 19:33N 31°19' E 121°34'65722509.9
2015-Feb-21 19:32N 23°04' E 113°29'0 0.5
2015-Feb-21 19:25N 23°04' E 113°29'656764.1
2015-Feb-21 18:33N 31°19' E 121°34'6564643.0
2015-Feb-21 18:25N 23°04' E 113°29'0 0.6
2015-Feb-21 18:23N 23°04' E 113°29'656793.6
2015-Feb-21 17:33N 31°19' E 121°34'65727805.4
2015-Feb-21 17:32N 23°04' E 113°29'0 0.5
2015-Feb-21 17:25N 23°04' E 113°29'656750.3
2015-Feb-21 16:32N 31°19' E 121°34'6565359.0
2015-Feb-21 16:25N 23°04' E 113°29'0 1.6
2015-Feb-21 16:23N 23°04' E 113°29'657799.8
2015-Feb-21 15:33N 31°19' E 121°34'6564459.1
2015-Feb-21 15:25N 23°04' E 113°29'0 0.7
2015-Feb-21 15:20N 23°04' E 113°29'657851.7
2015-Feb-21 14:33N 31°19' E 121°34'41831986.1
2015-Feb-21 14:33N 24°47' E 118°52'3131697.9
2015-Feb-21 14:22N 23°04' E 113°29'0 1.9
2015-Feb-21 14:20N 23°04' E 113°29'657845.9
2015-Feb-21 13:33N 31°19' E 121°34'41116432.6
2015-Feb-21 13:32N 24°53' E 118°57'3233632.7
2015-Feb-21 13:26N 22°54' E 113°28'10351.9
2015-Feb-21 13:25N 23°04' E 113°29'0 0.4
2015-Feb-21 13:20N 23°04' E 113°29'0 0.0
2015-Feb-21 12:32N 23°04' E 113°29'65624877.1
2015-Feb-21 12:30N 31°19' E 121°34'6567161.3
2015-Feb-21 12:25N 23°04' E 113°29'656769.7
2015-Feb-21 11:33N 31°19' E 121°34'6563663.9
2015-Feb-21 11:23N 23°04' E 113°29'0 1.7
2015-Feb-21 11:22N 23°04' E 113°29'656817.7
2015-Feb-21 10:33N 31°19' E 121°34'6563664.1
2015-Feb-21 10:23N 23°04' E 113°29'656794.7
2015-Feb-21 09:33N 31°19' E 121°34'0 0.0
2015-Feb-21 08:33N 31°19' E 121°34'65622296.1
2015-Feb-21 08:32N 23°04' E 113°29'0 0.5
2015-Feb-21 08:23N 23°04' E 113°29'312961.4
2015-Feb-21 08:03N 24°40' E 118°54'424845.7
2015-Feb-21 07:33N 31°19' E 121°34'42246007.7
2015-Feb-21 07:33N 24°41' E 118°56'3141903.9
2015-Feb-21 07:23N 23°04' E 113°29'0 3.2
2015-Feb-21 07:23N 23°04' E 113°29'656794.9
2015-Feb-21 06:33N 31°19' E 121°34'42083966.4
2015-Feb-21 06:33N 24°44' E 118°53'3131910.9
2015-Feb-21 06:23N 23°04' E 113°29'0 0.2
2015-Feb-21 06:20N 23°04' E 113°29'310399.3
2015-Feb-21 05:33N 24°47' E 118°49'419502380.5
2015-Feb-21 05:33N 31°19' E 121°34'65640746.3
2015-Feb-21 05:32N 23°04' E 113°29'0 2.3
2015-Feb-21 05:32N 23°04' E 113°29'0 0.0
2015-Feb-21 04:32N 23°04' E 113°29'65669508.4
2015-Feb-21 04:31N 31°19' E 121°34'42065672.1
2015-Feb-21 04:31N 24°46' E 118°47'3081623.0
2015-Feb-21 04:20N 23°04' E 113°29'0 0.1
2015-Feb-21 03:32N 23°04' E 113°29'010.5
2015-Feb-21 03:32N 23°04' E 113°29'6563361.6
2015-Feb-21 03:20N 31°21' E 121°32'2 9.6
2015-Feb-21 03:06N 31°19' E 121°34'0 0.1
2015-Feb-21 02:33N 31°19' E 121°34'65627479.6
2015-Feb-21 02:32N 23°04' E 113°29'031.3
2015-Feb-21 02:32N 23°04' E 113°29'3 3.4
2015-Feb-21 01:33N 23°02' E 113°31'657591573.6
2015-Feb-21 01:33N 31°19' E 121°34'65622295.8
2015-Feb-21 01:32N 23°04' E 113°29'3071119.8
2015-Feb-21 01:15N 24°46' E 118°46'420603.4
2015-Feb-21 00:33N 31°19' E 121°34'6567930.2
2015-Feb-21 00:28N 23°04' E 113°29'0 0.6
2015-Feb-21 00:23N 23°04' E 113°29'656800.1
2015-Feb-20 23:33N 31°19' E 121°34'65622295.8
2015-Feb-20 23:32N 23°04' E 113°29'0 0.3
2015-Feb-20 23:19N 23°04' E 113°29'656855.3
2015-Feb-20 22:33N 31°19' E 121°34'65620198.4
2015-Feb-20 22:31N 23°04' E 113°29'0 0.3
2015-Feb-20 22:20N 23°04' E 113°29'656839.9
2015-Feb-20 21:33N 31°19' E 121°34'65635808.5
2015-Feb-20 21:32N 23°04' E 113°29'0 0.3
2015-Feb-20 21:19N 23°04' E 113°29'656855.9
2015-Feb-20 20:33N 31°19' E 121°34'65619858.9
2015-Feb-20 20:31N 23°04' E 113°29'0 0.3
2015-Feb-20 20:20N 23°04' E 113°29'0 0.1
2015-Feb-20 19:31N 23°04' E 113°29'6564060.5
2015-Feb-20 19:22N 31°19' E 121°34'65619371.7
2015-Feb-20 19:20N 23°04' E 113°29'656844.7
2015-Feb-20 18:33N 31°19' E 121°34'65727482.9
2015-Feb-20 18:32N 23°04' E 113°29'021.9
2015-Feb-20 18:31N 23°04' E 113°29'656677.7
2015-Feb-20 17:33N 31°19' E 121°34'65723400.6
2015-Feb-20 17:32N 23°04' E 113°29'0 1.3
2015-Feb-20 17:28N 23°04' E 113°29'656713.5
2015-Feb-20 16:33N 31°19' E 121°34'65723400.8
2015-Feb-20 16:32N 23°04' E 113°29'022.7
2015-Feb-20 16:31N 23°04' E 113°29'0 0.0
2015-Feb-20 15:31N 23°04' E 113°29'0 0.5
2015-Feb-20 15:23N 23°04' E 113°29'6574235.6
2015-Feb-20 15:13N 31°19' E 121°34'0 0.0
2015-Feb-20 14:33N 31°19' E 121°34'65623399.3
2015-Feb-20 14:32N 23°04' E 113°29'013.7
2015-Feb-20 14:31N 23°04' E 113°29'656663.3
2015-Feb-20 13:32N 31°19' E 121°34'65690897.5
2015-Feb-20 13:32N 23°04' E 113°29'0 0.9
2015-Feb-20 13:28N 23°04' E 113°29'656710.9
2015-Feb-20 12:33N 31°19' E 121°34'65624616.1
2015-Feb-20 12:31N 23°04' E 113°29'0 0.2
2015-Feb-20 12:11N 23°04' E 113°29'6561048.5
2015-Feb-20 11:33N 31°19' E 121°34'6563775.3
2015-Feb-20 11:23N 23°04' E 113°29'0 1.2
2015-Feb-20 11:19N 23°04' E 113°29'656824.8
2015-Feb-20 10:32N 31°19' E 121°34'656590835.5
2015-Feb-20 10:32N 23°04' E 113°29'0 0.2
2015-Feb-20 10:16N 23°04' E 113°29'656900.3
2015-Feb-20 09:33N 31°19' E 121°34'65631509.0
2015-Feb-20 09:31N 23°04' E 113°29'0 0.2
2015-Feb-20 09:11N 23°04' E 113°29'6561057.4
2015-Feb-20 08:33N 31°19' E 121°34'65620371.8
2015-Feb-20 08:31N 23°04' E 113°29'0 0.1
2015-Feb-20 08:11N 23°04' E 113°29'6561061.6
2015-Feb-20 07:34N 31°19' E 121°34'65620730.6
2015-Feb-20 07:32N 23°04' E 113°29'022.7
2015-Feb-20 07:31N 23°04' E 113°29'656675.0
2015-Feb-20 06:33N 31°19' E 121°34'65623632.2
2015-Feb-20 06:31N 23°04' E 113°29'0 0.2
2015-Feb-20 06:20N 23°04' E 113°29'656846.5
2015-Feb-20 05:33N 31°19' E 121°34'65623870.9
2015-Feb-20 05:31N 23°04' E 113°29'0 0.1
2015-Feb-20 05:11N 23°04' E 113°29'6561049.4
2015-Feb-20 04:33N 31°19' E 121°34'65623632.3
2015-Feb-20 04:31N 23°04' E 113°29'0 0.2
2015-Feb-20 04:20N 23°04' E 113°29'656834.8
2015-Feb-20 03:32N 31°19' E 121°34'65649234.0
2015-Feb-20 03:32N 23°04' E 113°29'11208.2
2015-Feb-20 03:29N 23°06' E 113°18'11107.7
2015-Feb-20 03:23N 23°04' E 113°29'656789.6
2015-Feb-20 02:33N 31°19' E 121°34'65635273.7
2015-Feb-20 02:32N 23°04' E 113°29'010.8
2015-Feb-20 02:31N 23°04' E 113°29'656679.1
2015-Feb-20 01:33N 31°19' E 121°34'6567877.1
2015-Feb-20 01:28N 23°04' E 113°29'0 0.2
2015-Feb-20 01:08N 23°04' E 113°29'6561141.2
2015-Feb-20 00:33N 31°19' E 121°34'65617249.7
2015-Feb-20 00:31N 23°04' E 113°29'0 0.2
2015-Feb-20 00:11N 23°04' E 113°29'6561040.2
2015-Feb-19 23:33N 31°19' E 121°34'65634755.3
2015-Feb-19 23:32N 23°04' E 113°29'0 4.1
2015-Feb-19 23:31N 23°04' E 113°29'656686.2
2015-Feb-19 22:33N 31°19' E 121°34'65621883.0
2015-Feb-19 22:32N 23°04' E 113°29'0 3.6
2015-Feb-19 22:31N 23°04' E 113°29'656682.2
2015-Feb-19 21:33N 31°19' E 121°34'65617376.7
2015-Feb-19 21:31N 23°04' E 113°29'0 0.3
2015-Feb-19 21:20N 23°04' E 113°29'656828.4
2015-Feb-19 20:32N 31°19' E 121°34'65631509.7
2015-Feb-19 20:31N 23°04' E 113°29'0 0.3
2015-Feb-19 20:20N 23°04' E 113°29'656840.5
2015-Feb-19 19:33N 31°19' E 121°34'6562999.2
2015-Feb-19 19:20N 23°04' E 113°29'0 0.4
2015-Feb-19 19:10N 23°04' E 113°29'6561043.7
2015-Feb-19 18:32N 31°19' E 121°34'6561768.8
2015-Feb-19 18:10N 23°04' E 113°29'0 0.8
2015-Feb-19 18:08N 23°04' E 113°29'6561151.7
2015-Feb-19 17:33N 31°19' E 121°34'6562854.3
2015-Feb-19 17:20N 23°04' E 113°29'0 3.1
2015-Feb-19 17:19N 23°04' E 113°29'656867.9
2015-Feb-19 16:33N 31°19' E 121°34'6562854.3
2015-Feb-19 16:20N 23°04' E 113°29'656852.9
2015-Feb-19 15:33N 31°19' E 121°34'65622945.2
2015-Feb-19 15:32N 23°04' E 113°29'0 0.3
2015-Feb-19 15:22N 23°04' E 113°29'0 0.0
2015-Feb-19 14:23N 23°04' E 113°29'65632824.1
2015-Feb-19 14:21N 31°19' E 121°34'65614957.1
2015-Feb-19 14:19N 23°04' E 113°29'656867.9
2015-Feb-19 13:33N 31°19' E 121°34'65615052.4
2015-Feb-19 13:31N 23°04' E 113°29'0 0.2
2015-Feb-19 13:11N 23°04' E 113°29'6561058.8
2015-Feb-19 12:33N 31°19' E 121°34'65615051.7
2015-Feb-19 12:31N 23°04' E 113°29'0 0.6
2015-Feb-19 12:23N 23°04' E 113°29'657798.8
2015-Feb-19 11:33N 31°19' E 121°34'656139007.4
2015-Feb-19 11:33N 23°04' E 113°29'0 0.9
2015-Feb-19 11:28N 23°04' E 113°29'0 0.4
2015-Feb-19 11:20N 23°04' E 113°29'0 0.1
2015-Feb-19 10:33N 23°04' E 113°29'65622942.5
2015-Feb-19 10:31N 31°19' E 121°34'65610889.9
2015-Feb-19 10:28N 23°04' E 113°29'0 0.7
2015-Feb-19 10:23N 23°04' E 113°29'0 0.1
2015-Feb-19 09:33N 23°04' E 113°29'656590765.7
2015-Feb-19 09:33N 31°19' E 121°34'6567478.2
2015-Feb-19 09:28N 23°04' E 113°29'0 0.6
2015-Feb-19 09:23N 23°04' E 113°29'656801.1
2015-Feb-19 08:33N 31°19' E 121°34'656139009.3
2015-Feb-19 08:33N 23°04' E 113°29'0 2.3
2015-Feb-19 08:32N 23°04' E 113°29'0 0.5
2015-Feb-19 08:25N 23°04' E 113°29'6592329.7
2015-Feb-19 08:08N 32°00' E 120°41'6591139.1
2015-Feb-19 07:33N 23°04' E 113°29'65698464.9
2015-Feb-19 07:33N 31°19' E 121°34'65634250.8
2015-Feb-19 07:32N 23°04' E 113°29'66332238.5
2015-Feb-19 07:30N 32°01' E 120°47'66315591.6
2015-Feb-19 07:28N 23°04' E 113°29'0 0.1
2015-Feb-19 06:33N 23°04' E 113°29'66030863.7
2015-Feb-19 06:32N 31°54' E 120°53'6609943.7
2015-Feb-19 06:28N 23°04' E 113°29'65613901.3
2015-Feb-19 06:25N 31°19' E 121°34'65615755.7
2015-Feb-19 06:23N 23°04' E 113°29'656800.9
2015-Feb-19 05:33N 31°19' E 121°34'656168801.2
2015-Feb-19 05:33N 23°04' E 113°29'0 1.7
2015-Feb-19 05:32N 23°04' E 113°29'0 0.9
2015-Feb-19 05:28N 23°04' E 113°29'0 0.1
2015-Feb-19 04:33N 23°04' E 113°29'0 1.3
2015-Feb-19 04:32N 23°04' E 113°29'65678776.3
2015-Feb-19 04:31N 31°19' E 121°34'6562577.1
2015-Feb-19 04:16N 23°04' E 113°29'656928.9
2015-Feb-19 03:33N 31°19' E 121°34'656139007.4
2015-Feb-19 03:33N 23°04' E 113°29'0 1.6
2015-Feb-19 03:32N 23°04' E 113°29'0 0.9
2015-Feb-19 03:28N 23°04' E 113°29'656724.5
2015-Feb-19 02:33N 31°19' E 121°34'65621290.8
2015-Feb-19 02:32N 23°04' E 113°29'0 0.9
2015-Feb-19 02:28N 23°04' E 113°29'0 1.3
2015-Feb-19 02:24N 23°04' E 113°29'656772.0
2015-Feb-19 01:33N 31°19' E 121°34'656139009.2
2015-Feb-19 01:33N 23°04' E 113°29'0 1.6
2015-Feb-19 01:32N 23°04' E 113°29'0 0.9
2015-Feb-19 01:28N 23°04' E 113°29'656724.0
2015-Feb-19 00:33N 31°19' E 121°34'6564571.0
2015-Feb-19 00:25N 23°04' E 113°29'0 1.5
2015-Feb-19 00:23N 23°04' E 113°29'0 0.3
2015-Feb-19 00:12N 23°04' E 113°29'6561000.5
2015-Feb-18 23:33N 31°19' E 121°34'65633762.5
2015-Feb-18 23:32N 23°04' E 113°29'0 0.9
2015-Feb-18 23:28N 23°04' E 113°29'0 1.3
2015-Feb-18 23:24N 23°04' E 113°29'  
Track history (hours):
 
Tides and Currents Weather Stations Pressure Air Temp Water Temp Dewpoint Dewpoint Depression Visibility Wind Speed Wind Dir Waves Ship Positions

Callsign 000000 (name unknown)

Last reported at 2015-Feb-28 22:34 UTC. Time now 2015-Feb-28 23:04 UTC.
Position N 31°21' E 121°31'.

Type: Fishing. MMSI: 200007452.

Date/timePositionNaut miles runAvg speedWind from/ knotsBaromVisibWave heightAir tempDewpointWater temp
2015-Feb-28 22:34N 31°21' E 121°31'36192.0
2015-Feb-28 22:33N 31°21' E 121°27'610225.4
2015-Feb-28 22:33N 31°19' E 121°34'67265365.3
2015-Feb-28 22:33N 22°18' E 114°07'3646977.0
2015-Feb-28 22:30N 25°58' E 119°26'3689673.1
2015-Feb-28 22:27N 23°04' E 113°29'658723.0
2015-Feb-28 21:33N 31°24' E 121°31'44517.2
2015-Feb-28 21:33N 31°21' E 121°27'6701206396.2
2015-Feb-28 21:33N 22°18' E 114°07'67232246.9
2015-Feb-28 21:31N 31°19' E 121°34'65610055.9
2015-Feb-28 21:28N 23°04' E 113°29'3685761.8
2015-Feb-28 21:24N 25°58' E 119°26'341391.4
2015-Feb-28 20:31N 31°21' E 121°27'6169.0
2015-Feb-28 20:29N 31°19' E 121°34'65619212.4
2015-Feb-28 20:27N 23°04' E 113°29'3685996.4
2015-Feb-28 20:24N 25°58' E 119°26'341403.6
2015-Feb-28 19:33N 31°19' E 121°34'6192.9
2015-Feb-28 19:31N 31°21' E 121°27'34112645.6
2015-Feb-28 19:30N 25°58' E 119°26'3689535.2
2015-Feb-28 19:27N 23°04' E 113°29'654724.4
2015-Feb-28 18:33N 31°21' E 121°27'64090.1
2015-Feb-28 18:33N 31°19' E 121°34'3406038.0
2015-Feb-28 18:30N 25°58' E 119°26'3689399.9
2015-Feb-28 18:27N 23°04' E 113°29'654725.3
2015-Feb-28 17:33N 31°21' E 121°27'53044365.6
2015-Feb-28 17:33N 22°35' E 120°18'52961375.9
2015-Feb-28 17:32N 31°19' E 121°34'3408946.5
2015-Feb-28 17:30N 25°58' E 119°26'36315950.8
2015-Feb-28 17:28N 22°20' E 114°08'57851.9
2015-Feb-28 17:24N 23°04' E 113°29'2470.7
2015-Feb-28 17:04N 22°42' E 113°41'6651297.4
2015-Feb-28 16:33N 31°21' E 121°27'6204.5
2015-Feb-28 16:31N 31°19' E 121°34'34012380.6
2015-Feb-28 16:30N 25°58' E 119°26'3689467.2
2015-Feb-28 16:27N 23°04' E 113°29'18534.4
2015-Feb-28 16:25N 22°47' E 113°37'3647314.7
2015-Feb-28 16:22N 22°43' E 120°12'3383008.3
2015-Feb-28 16:16N 22°19' E 114°07'671955.9
2015-Feb-28 15:34N 31°19' E 121°34'67286398.4
2015-Feb-28 15:33N 22°18' E 114°07'482827.3
2015-Feb-28 15:32N 22°55' E 113°34'472052.0
2015-Feb-28 15:31N 22°19' E 114°07'670100452.1
2015-Feb-28 15:30N 31°21' E 121°27'34139567.0
2015-Feb-28 15:30N 25°58' E 119°26'3681539.3
2015-Feb-28 15:15N 23°04' E 113°29'3 3.6
2015-Feb-28 14:33N 23°02' E 113°31'657182004.5
2015-Feb-28 14:33N 31°19' E 121°34'672127324.9
2015-Feb-28 14:33N 22°18' E 114°07'01029.0
2015-Feb-28 14:33N 22°18' E 114°08'670160830.6
2015-Feb-28 14:33N 31°21' E 121°27'6547526.2
2015-Feb-28 14:27N 23°04' E 113°29'3681411.5
2015-Feb-28 14:12N 25°58' E 119°26'341531.4
2015-Feb-28 13:33N 31°21' E 121°27'655261865.0
2015-Feb-28 13:33N 23°06' E 113°27'617025.8
2015-Feb-28 13:33N 22°18' E 114°08'0514.5
2015-Feb-28 13:33N 22°18' E 114°07'58667.1
2015-Feb-28 13:27N 23°04' E 113°29'3681021.0
2015-Feb-28 13:06N 25°58' E 119°26'340633.8
2015-Feb-28 12:34N 31°19' E 121°34'62556.3
2015-Feb-28 12:33N 31°21' E 121°27'655294600.2
2015-Feb-28 12:33N 23°06' E 113°27'6018148.7
2015-Feb-28 12:33N 22°18' E 114°08'072.5
2015-Feb-28 12:33N 22°18' E 114°07'3657171.1
2015-Feb-28 12:30N 25°58' E 119°26'3689267.7
2015-Feb-28 12:27N 23°04' E 113°29'3 3.4
2015-Feb-28 11:34N 23°06' E 113°27'657118211.3
2015-Feb-28 11:33N 31°19' E 121°34'67263661.5
2015-Feb-28 11:33N 22°18' E 114°07'6701206705.7
2015-Feb-28 11:33N 31°21' E 121°27'65438608.5
2015-Feb-28 11:31N 23°04' E 113°30'36812736.7
2015-Feb-28 11:30N 25°58' E 119°26'341362.0
2015-Feb-28 10:33N 31°21' E 121°27'655589196.0
2015-Feb-28 10:33N 23°06' E 113°27'32217818.5
2015-Feb-28 10:32N 24°47' E 119°01'32019840.7
2015-Feb-28 10:31N 23°04' E 113°30'58681.5
2015-Feb-28 10:26N 22°18' E 114°07'55925.6
2015-Feb-28 10:23N 23°02' E 113°31'8121.5
2015-Feb-28 10:18N 22°53' E 113°30'36810105.4
2015-Feb-28 10:16N 22°46' E 120°09'1961123.7
2015-Feb-28 10:06N 25°58' E 119°26'202372.4
2015-Feb-28 09:33N 22°40' E 120°13'37579488.9
2015-Feb-28 09:33N 23°06' E 113°27'5754.9
2015-Feb-28 09:32N 23°02' E 113°31'656393323.3
2015-Feb-28 09:32N 31°21' E 121°27'3417763.7
2015-Feb-28 09:30N 25°58' E 119°26'36526781.5
2015-Feb-28 09:29N 22°18' E 114°07'67615029.3
2015-Feb-28 09:26N 31°49' E 120°55'6579894.1
2015-Feb-28 09:22N 23°04' E 113°30'3 3.9
2015-Feb-28 08:33N 23°06' E 113°27'65540634.8
2015-Feb-28 08:32N 31°21' E 121°27'670201119.1
2015-Feb-28 08:32N 22°18' E 114°07'583839.0
2015-Feb-28 08:31N 23°04' E 113°30'3153.5
2015-Feb-28 08:30N 23°02' E 113°31'6611190541.1
2015-Feb-28 08:30N 31°54' E 120°53'66619024.4
2015-Feb-28 08:28N 23°03' E 113°21'3765224.4
2015-Feb-28 08:24N 25°58' E 119°26'368440.4
2015-Feb-28 07:34N 23°02' E 113°31'6582367114.9
2015-Feb-28 07:34N 31°19' E 121°34'658263150.6
2015-Feb-28 07:33N 23°05' E 113°26'11436.2
2015-Feb-28 07:33N 23°06' E 113°27'65558920.5
2015-Feb-28 07:33N 31°21' E 121°27'65426462.0
2015-Feb-28 07:31N 23°04' E 113°30'6621533.4
2015-Feb-28 07:05N 32°00' E 120°47'57107.6
2015-Feb-28 06:34N 31°19' E 121°34'657197009.6
2015-Feb-28 06:33N 23°06' E 113°27'65562020.7
2015-Feb-28 06:33N 31°21' E 121°27'65625651.7
2015-Feb-28 06:31N 23°02' E 113°31'36647044.8
2015-Feb-28 06:31N 25°57' E 119°23'365931.2
2015-Feb-28 06:07N 23°04' E 113°30'0 0.1
2015-Feb-28 05:33N 23°04' E 113°30'311553.6
2015-Feb-28 05:33N 23°06' E 113°27'65521042.7
2015-Feb-28 05:31N 31°21' E 121°27'61203.0
2015-Feb-28 05:31N 31°19' E 121°34'656787488.8
2015-Feb-28 05:31N 23°04' E 113°30'3653382.5
2015-Feb-28 05:25N 25°57' E 119°23'342400.7
2015-Feb-28 04:33N 31°21' E 121°27'655471357.0
2015-Feb-28 04:33N 23°06' E 113°27'3549.6
2015-Feb-28 04:33N 23°04' E 113°30'65621283.4
2015-Feb-28 04:31N 31°19' E 121°34'6561181224.8
2015-Feb-28 04:31N 23°04' E 113°30'36545371.3
2015-Feb-28 04:31N 25°57' E 119°23'74534.6
2015-Feb-28 04:22N 24°46' E 119°03'1492346.7
2015-Feb-28 04:19N 22°34' E 120°18'381505.6
2015-Feb-28 03:33N 23°06' E 113°27'323387154.9
2015-Feb-28 03:33N 24°45' E 119°02'41648297.9
2015-Feb-28 03:33N 31°19' E 121°34'66816.9
2015-Feb-28 03:33N 31°21' E 121°27'6543685.6
2015-Feb-28 03:22N 23°04' E 113°30'656809.6
2015-Feb-28 02:34N 31°19' E 121°34'657472877.2
2015-Feb-28 02:33N 23°06' E 113°27'32338.5
2015-Feb-28 02:33N 23°04' E 113°30'3209609.7
2015-Feb-28 02:31N 24°45' E 119°02'32096108.0
2015-Feb-28 02:31N 23°04' E 113°30'65445290.4
2015-Feb-28 02:30N 31°21' E 121°27'65821945.0
2015-Feb-28 02:28N 23°03' E 113°24'416.1
2015-Feb-28 02:12N 23°04' E 113°29'0 0.5
2015-Feb-28 01:33N 23°04' E 113°29'654214159.7
2015-Feb-28 01:33N 31°21' E 121°27'6551178409.2
2015-Feb-28 01:33N 23°06' E 113°27'395.2
2015-Feb-28 01:31N 23°04' E 113°30'65620193.8
2015-Feb-28 01:29N 31°19' E 121°34'65717507.0
2015-Feb-28 01:27N 23°04' E 113°29'0 2.6
2015-Feb-28 01:24N 23°04' E 113°29'4 4.3
2015-Feb-28 00:33N 23°06' E 113°25'42183.3
2015-Feb-28 00:33N 23°04' E 113°29'65451216.9
2015-Feb-28 00:33N 31°21' E 121°27'65155.6
2015-Feb-28 00:33N 31°19' E 121°34'65715150.2
2015-Feb-28 00:30N 23°04' E 113°29'0 4.0
2015-Feb-28 00:27N 23°04' E 113°29'014.3
2015-Feb-28 00:27N 23°04' E 113°29'3221036.0
2015-Feb-28 00:08N 24°47' E 119°03'323556.9
2015-Feb-27 23:34N 23°06' E 113°27'31512.4
2015-Feb-27 23:33N 23°04' E 113°29'657168818.0
2015-Feb-27 23:33N 31°19' E 121°34'65843074.3
2015-Feb-27 23:32N 23°01' E 113°31'65627463.1
2015-Feb-27 23:31N 31°21' E 121°27'6545773.8
2015-Feb-27 23:24N 23°04' E 113°29'3217125.8
2015-Feb-27 23:21N 24°47' E 119°01'3215659.5
2015-Feb-27 23:18N 23°04' E 113°29'55264.7
2015-Feb-27 23:06N 22°11' E 113°41'6921295.3
2015-Feb-27 22:34N 31°19' E 121°34'657118173.4
2015-Feb-27 22:33N 23°04' E 113°29'5513144.0
2015-Feb-27 22:33N 22°12' E 113°45'688154699.1
2015-Feb-27 22:33N 31°21' E 121°27'654336231.7
2015-Feb-27 22:33N 23°05' E 113°29'615100626.0
2015-Feb-27 22:32N 29°42' E 122°14'6157828.9
2015-Feb-27 22:27N 23°04' E 113°29'0 0.5
2015-Feb-27 22:15N 23°04' E 113°29'0 0.7
2015-Feb-27 22:03N 23°04' E 113°29'0 0.1
2015-Feb-27 21:34N 23°04' E 113°29'1198.4
2015-Feb-27 21:33N 23°05' E 113°29'6562361135.3
2015-Feb-27 21:33N 31°19' E 121°34'674134761.7
2015-Feb-27 21:33N 22°18' E 114°04'56405.5
2015-Feb-27 21:25N 23°04' E 113°29'0 0.3
2015-Feb-27 21:03N 23°04' E 113°29'0 0.2
2015-Feb-27 20:34N 23°04' E 113°29'165.2
2015-Feb-27 20:33N 23°05' E 113°29'6549087.3
2015-Feb-27 20:28N 31°21' E 121°27'65450123.9
2015-Feb-27 20:27N 23°04' E 113°29'0 7.1
2015-Feb-27 20:27N 23°04' E 113°29'6567672.6
2015-Feb-27 20:22N 31°19' E 121°34'6572474.8
2015-Feb-27 20:06N 23°04' E 113°29'0 0.1
2015-Feb-27 19:34N 23°04' E 113°29'654336559.9
2015-Feb-27 19:33N 31°21' E 121°27'654235360.5
2015-Feb-27 19:33N 23°05' E 113°29'6562361118.6
2015-Feb-27 19:33N 31°19' E 121°34'6576404.9
2015-Feb-27 19:27N 23°04' E 113°29'0 0.9
2015-Feb-27 19:15N 23°04' E 113°29'0 7.0
2015-Feb-27 19:15N 23°04' E 113°29'67437.0
2015-Feb-27 19:06N 22°11' E 114°14'6741254.5
2015-Feb-27 18:34N 31°19' E 121°34'656147569.9
2015-Feb-27 18:33N 23°05' E 113°29'1148.6
2015-Feb-27 18:33N 23°04' E 113°29'65423559.5
2015-Feb-27 18:31N 31°21' E 121°27'65410564.2
2015-Feb-27 18:27N 23°04' E 113°29'0 0.8
2015-Feb-27 18:15N 23°04' E 113°29'1 1.6
2015-Feb-27 17:33N 23°05' E 113°29'656393519.8
2015-Feb-27 17:33N 31°19' E 121°34'65759085.6
2015-Feb-27 17:33N 23°04' E 113°29'65417451.4
2015-Feb-27 17:30N 31°21' E 121°27'65413939.7
2015-Feb-27 17:27N 23°04' E 113°29'0 1.0
2015-Feb-27 17:24N 23°04' E 113°29'0 0.1
2015-Feb-27 16:34N 23°04' E 113°29'654392676.8
2015-Feb-27 16:33N 31°21' E 121°27'61460.8
2015-Feb-27 16:33N 31°19' E 121°34'656168651.3
2015-Feb-27 16:33N 23°05' E 113°29'110.2
2015-Feb-27 16:27N 23°04' E 113°29'0 7.1
2015-Feb-27 16:27N 23°04' E 113°29'0535.1
2015-Feb-27 16:27N 23°04' E 113°29'1 1.2
2015-Feb-27 15:33N 23°05' E 113°29'656393519.8
2015-Feb-27 15:33N 31°19' E 121°34'6572363409.1
2015-Feb-27 15:33N 23°04' E 113°29'6542355919.1
2015-Feb-27 15:33N 31°21' E 121°27'6547774.9
2015-Feb-27 15:27N 23°04' E 113°29'0 0.2
2015-Feb-27 15:12N 23°04' E 113°29'6561023.9
2015-Feb-27 14:34N 31°19' E 121°34'656124389.1
2015-Feb-27 14:33N 23°04' E 113°29'1282.5
2015-Feb-27 14:33N 23°05' E 113°29'65412453.7
2015-Feb-27 14:30N 31°21' E 121°27'6547316.6
2015-Feb-27 14:24N 23°04' E 113°29'0 6.9
2015-Feb-27 14:24N 23°04' E 113°29'656780.7
2015-Feb-27 13:34N 31°19' E 121°34'6562363325.3
2015-Feb-27 13:34N 23°04' E 113°29'1123.7
2015-Feb-27 13:33N 23°05' E 113°29'65452302.3
2015-Feb-27 13:32N 31°21' E 121°27'6548151.6
2015-Feb-27 13:27N 23°04' E 113°29'013.7
2015-Feb-27 13:27N 23°04' E 113°29'130.7
2015-Feb-27 13:26N 23°04' E 113°30'1 1.6
2015-Feb-27 12:33N 23°05' E 113°29'1108.1
2015-Feb-27 12:33N 23°04' E 113°29'65478533.6
2015-Feb-27 12:32N 31°21' E 121°27'698.0
2015-Feb-27 12:29N 31°19' E 121°34'656138966.2
2015-Feb-27 12:29N 23°04' E 113°30'143.9
2015-Feb-27 12:28N 23°04' E 113°29'0 1.9
2015-Feb-27 12:24N 23°04' E 113°29'0 0.1
2015-Feb-27 11:34N 23°04' E 113°29'654147251.5
2015-Feb-27 11:33N 31°21' E 121°27'65478457.0
2015-Feb-27 11:33N 23°05' E 113°29'65642927.6
2015-Feb-27 11:32N 31°19' E 121°34'6568951.9
2015-Feb-27 11:27N 23°04' E 113°29'0 1.5
2015-Feb-27 11:23N 23°04' E 113°29'1 4.3
2015-Feb-27 11:14N 23°04' E 113°30'656983.1
2015-Feb-27 10:34N 31°19' E 121°34'62561.4
2015-Feb-27 10:33N 31°21' E 121°27'65476000.2
2015-Feb-27 10:33N 23°04' E 113°29'1730.3
2015-Feb-27 10:33N 23°05' E 113°29'110.2
2015-Feb-27 10:27N 23°04' E 113°29'0 0.5
2015-Feb-27 10:20N 23°04' E 113°29'1 6.4
2015-Feb-27 10:14N 23°04' E 113°30'1 2.2
2015-Feb-27 09:33N 23°05' E 113°29'1807.7
2015-Feb-27 09:33N 23°04' E 113°29'654102427.3
2015-Feb-27 09:33N 31°21' E 121°27'65484141.9
2015-Feb-27 09:33N 23°04' E 113°29'0 7.2
2015-Feb-27 09:32N 23°04' E 113°29'656196909.5
2015-Feb-27 09:32N 31°19' E 121°34'65612769.3
2015-Feb-27 09:29N 23°04' E 113°30'1 0.7
2015-Feb-27 08:34N 23°04' E 113°29'1178.4
2015-Feb-27 08:33N 23°05' E 113°29'65475928.3
2015-Feb-27 08:33N 31°21' E 121°27'65448076.6
2015-Feb-27 08:32N 23°04' E 113°29'65647261.1
2015-Feb-27 08:31N 31°19' E 121°34'65615962.4
2015-Feb-27 08:29N 23°04' E 113°30'1 2.7
2015-Feb-27 08:12N 23°04' E 113°29'0 0.0
2015-Feb-27 07:33N 23°04' E 113°29'4430.6
2015-Feb-27 07:33N 23°03' E 113°25'4347.2
2015-Feb-27 07:32N 23°04' E 113°29'110.5
2015-Feb-27 07:29N 23°04' E 113°30'65625132.3
2015-Feb-27 07:27N 31°19' E 121°34'6569567.0
2015-Feb-27 07:23N 23°04' E 113°29'0 0.1
2015-Feb-27 06:34N 23°04' E 113°29'65678775.8
2015-Feb-27 06:33N 31°19' E 121°34'65636354.5
2015-Feb-27 06:32N 23°04' E 113°29'810074.0
2015-Feb-27 06:32N 23°03' E 113°20'661594610.7
2015-Feb-27 06:32N 31°21' E 121°27'107698.6
2015-Feb-27 06:23N 29°42' E 122°12'4405466.6
2015-Feb-27 06:18N 22°34' E 120°19'531719.0
2015-Feb-27 05:34N 31°21' E 121°27'654392643.4
2015-Feb-27 05:33N 23°04' E 113°29'65694526.0
2015-Feb-27 05:33N 31°19' E 121°34'656337615.4
2015-Feb-27 05:33N 23°04' E 113°29'0 2.1
2015-Feb-27 05:31N 23°04' E 113°29'14255.9
2015-Feb-27 05:28N 23°03' E 113°14'14110.8
2015-Feb-27 05:20N 23°04' E 113°29'21174.6
2015-Feb-27 05:13N 22°44' E 113°28'2030.8
2015-Feb-27 04:33N 23°04' E 113°29'205978.2
2015-Feb-27 04:33N 22°45' E 113°24'673121053.7
2015-Feb-27 04:32N 31°21' E 121°27'65425608.8
2015-Feb-27 04:31N 23°04' E 113°29'65617505.9
2015-Feb-27 04:29N 31°19' E 121°34'67053619.0
2015-Feb-27 04:28N 23°01' E 113°10'18301.8
2015-Feb-27 04:24N 23°04' E 113°29'0 0.7
2015-Feb-27 04:20N 23°04' E 113°29'0 0.1
2015-Feb-27 03:33N 23°04' E 113°29'654336572.3
2015-Feb-27 03:33N 31°21' E 121°27'65448076.6
2015-Feb-27 03:32N 23°04' E 113°29'0 3.0
2015-Feb-27 03:31N 23°04' E 113°29'65611043.5
2015-Feb-27 03:27N 31°19' E 121°34'65613426.9
2015-Feb-27 03:24N 23°04' E 113°29'1774.0
2015-Feb-27 03:11N 22°51' E 113°18'1320.8
2015-Feb-27 02:33N 23°02' E 113°24'53340.4
2015-Feb-27 02:33N 23°04' E 113°29'072.8
2015-Feb-27 02:33N 23°04' E 113°29'65410758.1
2015-Feb-27 02:30N 31°21' E 121°27'6259.4
2015-Feb-27 02:28N 31°19' E 121°34'6566138.5
2015-Feb-27 02:22N 23°04' E 113°29'163464.8
2015-Feb-27 02:22N 22°54' E 113°15'16232.0
2015-Feb-27 02:17N 23°04' E 113°29'12757.6
2015-Feb-27 02:16N 23°04' E 113°16'1216.6
2015-Feb-27 01:33N 23°04' E 113°29'017.5
2015-Feb-27 01:33N 23°04' E 113°29'654124002.1
2015-Feb-27 01:33N 31°21' E 121°27'654181214.4
2015-Feb-27 01:32N 23°04' E 113°29'6555241.2
2015-Feb-27 01:25N 31°22' E 121°28'65513402.3
2015-Feb-27 01:22N 23°04' E 113°29'656118167.5
2015-Feb-27 01:22N 31°19' E 121°34'6565371.1
2015-Feb-27 01:14N 23°04' E 113°29'0 0.2
2015-Feb-27 00:33N 23°04' E 113°29'65662192.8
2015-Feb-27 00:33N 31°19' E 121°34'610245.4
2015-Feb-27 00:33N 31°21' E 121°27'654196315.6
2015-Feb-27 00:32N 23°04' E 113°29'0 2.9
2015-Feb-27 00:31N 23°04' E 113°29'0 0.4
2015-Feb-27 00:21N 23°04' E 113°29'0 1.5
2015-Feb-27 00:11N 23°04' E 113°29'6541036.5
2015-Feb-26 23:33N 31°21' E 121°27'654589004.9
2015-Feb-26 23:33N 23°04' E 113°29'0111.2
2015-Feb-26 23:33N 23°04' E 113°29'656118167.9
2015-Feb-26 23:33N 31°19' E 121°34'65610940.2
2015-Feb-26 23:29N 23°04' E 113°29'0 0.7
2015-Feb-26 23:19N 23°04' E 113°29'6636800.4
2015-Feb-26 23:13N 32°00' E 120°49'6631005.7
2015-Feb-26 22:34N 23°04' E 113°29'038.0
2015-Feb-26 22:33N 23°04' E 113°29'65431413.0
2015-Feb-26 22:32N 31°21' E 121°27'55025704.5
2015-Feb-26 22:31N 23°10' E 116°49'1847805.3
2015-Feb-26 22:29N 23°04' E 113°29'0 0.1
2015-Feb-26 21:34N 23°04' E 113°29'654214176.4
2015-Feb-26 21:33N 31°21' E 121°27'654107090.6
2015-Feb-26 21:33N 23°04' E 113°29'656131296.8
2015-Feb-26 21:33N 31°19' E 121°34'65634237.1
2015-Feb-26 21:32N 23°04' E 113°30'1 3.3
2015-Feb-26 21:19N 23°04' E 113°29'0 0.1
2015-Feb-26 20:34N 23°04' E 113°29'65431835.3
2015-Feb-26 20:32N 31°21' E 121°27'65440620.6
2015-Feb-26 20:31N 23°04' E 113°29'6561942.0
2015-Feb-26 20:11N 31°19' E 121°34'657966.7
2015-Feb-26 19:30N 23°04' E 113°29'65418264.3
2015-Feb-26 19:28N 31°21' E 121°27'65410757.7
2015-Feb-26 19:25N 23°04' E 113°29'656236330.1
2015-Feb-26 19:24N 31°19' E 121°34'6569971.2
2015-Feb-26 19:20N 23°04' E 113°29'654837.8
2015-Feb-26 18:34N 31°21' E 121°27'61859.2
2015-Feb-26 18:33N 31°19' E 121°34'6561181658.2
2015-Feb-26 18:33N 23°04' E 113°29'120.3
2015-Feb-26 18:32N 23°04' E 113°30'1 3.4
2015-Feb-26 18:20N 23°04' E 113°29'0 2.7
2015-Feb-26 18:19N 23°04' E 113°29'0 0.6
2015-Feb-26 18:12N 23°04' E 113°29'0 0.0
2015-Feb-26 17:33N 23°04' E 113°29'099.7
2015-Feb-26 17:33N 23°04' E 113°29'6541177976.4
2015-Feb-26 17:33N 31°21' E 121°27'6568.3
2015-Feb-26 17:33N 31°19' E 121°34'65634237.1
2015-Feb-26 17:32N 23°04' E 113°30'118.9
2015-Feb-26 17:29N 23°04' E 113°29'0 0.0
2015-Feb-26 16:33N 23°04' E 113°29'656590785.5
2015-Feb-26 16:33N 31°19' E 121°34'6562363283.8
2015-Feb-26 16:33N 23°04' E 113°29'0 7.6
2015-Feb-26 16:32N 23°04' E 113°29'65448077.0
2015-Feb-26 16:32N 31°21' E 121°27'65414278.1
2015-Feb-26 16:29N 23°04' E 113°29'654709.8
2015-Feb-26 15:34N 31°21' E 121°27'654336541.6
2015-Feb-26 15:33N 23°04' E 113°29'6561181571.0
2015-Feb-26 15:33N 31°19' E 121°34'656787761.3
2015-Feb-26 15:33N 23°04' E 113°29'22547656.4
2015-Feb-26 15:33N 23°39' E 117°31'22520776.8
2015-Feb-26 15:32N 23°04' E 113°29'0 4.5
2015-Feb-26 15:31N 23°04' E 113°29'0 4.3
2015-Feb-26 15:29N 23°04' E 113°29'231251.2
2015-Feb-26 14:33N 23°43' E 117°38'231138845.8
2015-Feb-26 14:33N 23°04' E 113°29'013.8
2015-Feb-26 14:33N 23°04' E 113°29'65687533.0
2015-Feb-26 14:33N 31°19' E 121°34'656262569.4
2015-Feb-26 14:32N 23°04' E 113°29'0 3.9
2015-Feb-26 14:29N 23°04' E 113°29'0 1.2
2015-Feb-26 14:19N 23°04' E 113°29'656867.9
2015-Feb-26 13:34N 31°19' E 121°34'656181791.7
2015-Feb-26 13:33N 23°04' E 113°29'23552885.9
2015-Feb-26 13:33N 23°50' E 117°40'23521152.7
2015-Feb-26 13:32N 23°04' E 113°29'0 3.0
2015-Feb-26 13:31N 23°04' E 113°29'65452351.3
2015-Feb-26 13:30N 31°21' E 121°27'65427391.0
2015-Feb-26 13:29N 23°04' E 113°29'0 3.9
2015-Feb-26 13:24N 23°04' E 113°29'656774.3
2015-Feb-26 12:34N 31°19' E 121°34'656181790.5
2015-Feb-26 12:33N 23°04' E 113°29'24226387.7
2015-Feb-26 12:33N 23°54' E 117°47'488439260.2
2015-Feb-26 12:33N 31°21' E 121°27'654123985.4
2015-Feb-26 12:32N 23°04' E 113°29'0 2.8
2015-Feb-26 12:31N 23°04' E 113°29'0180.9
2015-Feb-26 12:31N 23°04' E 113°29'0 1.8
2015-Feb-26 12:21N 23°04' E 113°29'0 0.1
2015-Feb-26 11:33N 23°04' E 113°29'65634753.4
2015-Feb-26 11:32N 31°19' E 121°34'65652516.4
2015-Feb-26 11:31N 23°04' E 113°29'6546316.2
2015-Feb-26 11:25N 31°21' E 121°27'6546150.9
2015-Feb-26 11:19N 23°04' E 113°29'0 1.3
2015-Feb-26 11:08N 23°04' E 113°29'6561130.6
2015-Feb-26 10:33N 31°19' E 121°34'63427.4
2015-Feb-26 10:33N 31°21' E 121°27'654181238.5
2015-Feb-26 10:33N 23°04' E 113°29'0 1.9
2015-Feb-26 10:31N 23°04' E 113°29'0 0.6
2015-Feb-26 10:24N 23°04' E 113°29'7367.4
2015-Feb-26 10:23N 22°58' E 113°34'72883.8
2015-Feb-26 10:23N 23°04' E 113°29'0 2.9
2015-Feb-26 10:19N 23°04' E 113°29'25617713.8
2015-Feb-26 10:18N 24°07' E 117°60'256345.3
2015-Feb-26 09:33N 23°04' E 113°29'656139008.8
2015-Feb-26 09:33N 31°19' E 121°34'656196942.4
2015-Feb-26 09:33N 23°04' E 113°29'26058583.8
2015-Feb-26 09:33N 24°11' E 118°04'46731100.9
2015-Feb-26 09:32N 31°21' E 121°27'65442838.6
2015-Feb-26 09:31N 23°04' E 113°29'0 1.4
2015-Feb-26 09:22N 23°04' E 113°29'0 4.5
2015-Feb-26 09:19N 23°04' E 113°29'0 0.1
2015-Feb-26 08:33N 23°04' E 113°29'654261774.8
2015-Feb-26 08:33N 31°21' E 121°27'65090.2
2015-Feb-26 08:33N 31°19' E 121°34'46166360.1
2015-Feb-26 08:33N 24°15' E 118°11'268160516.0
2015-Feb-26 08:33N 23°04' E 113°29'0 2.5
2015-Feb-26 08:31N 23°04' E 113°29'0147.2
2015-Feb-26 08:31N 23°04' E 113°29'0 1.4
2015-Feb-26 08:22N 23°04' E 113°29'0 0.1
2015-Feb-26 07:33N 23°04' E 113°29'0135.3
2015-Feb-26 07:33N 23°04' E 113°29'65687530.6
2015-Feb-26 07:33N 31°19' E 121°34'65622721.9
2015-Feb-26 07:31N 23°04' E 113°29'65439930.2
2015-Feb-26 07:30N 31°21' E 121°27'6554828.4
2015-Feb-26 07:22N 23°04' E 113°29'075.4
2015-Feb-26 07:22N 23°04' E 113°29'0 0.3
2015-Feb-26 06:33N 23°04' E 113°29'0109.2
2015-Feb-26 06:33N 23°04' E 113°29'65648231.1
2015-Feb-26 06:33N 31°19' E 121°34'6893.4
2015-Feb-26 06:32N 31°21' E 121°27'65431001.4
2015-Feb-26 06:31N 23°04' E 113°29'6547408.7
2015-Feb-26 06:26N 31°21' E 121°27'65411491.5
2015-Feb-26 06:22N 23°04' E 113°29'018.8
2015-Feb-26 06:22N 23°04' E 113°29'654810.5
2015-Feb-26 05:33N 31°21' E 121°27'654471169.2
2015-Feb-26 05:33N 23°04' E 113°29'018.2
2015-Feb-26 05:33N 23°04' E 113°29'0 2.9
2015-Feb-26 05:31N 23°04' E 113°29'018.8
2015-Feb-26 05:31N 23°04' E 113°29'65654960.9
2015-Feb-26 05:30N 31°19' E 121°34'61868.0
2015-Feb-26 05:30N 31°21' E 121°27'6544798.5
2015-Feb-26 05:22N 23°04' E 113°29'0 0.3
2015-Feb-26 04:33N 23°04' E 113°29'018.2
2015-Feb-26 04:33N 23°04' E 113°29'473189.6
2015-Feb-26 04:32N 22°23' E 113°54'67351550.4
2015-Feb-26 04:31N 31°21' E 121°27'65481241.3
2015-Feb-26 04:31N 23°04' E 113°29'65641459.3
2015-Feb-26 04:30N 31°19' E 121°34'694.0
2015-Feb-26 04:26N 31°21' E 121°27'6549576.2
2015-Feb-26 04:22N 23°04' E 113°29'0 2.1
2015-Feb-26 04:19N 23°04' E 113°29'655856.5
2015-Feb-26 03:33N 31°21' E 121°27'655471641.2
2015-Feb-26 03:33N 23°05' E 113°27'655147375.1
2015-Feb-26 03:33N 31°21' E 121°27'6397.3
2015-Feb-26 03:32N 31°19' E 121°34'65656265.3
2015-Feb-26 03:31N 23°04' E 113°29'0 0.1
2015-Feb-26 03:24N 23°04' E 113°29'0 5.6
2015-Feb-26 03:22N 23°04' E 113°29'431058.6
2015-Feb-26 03:19N 22°27' E 113°53'435351.0
2015-Feb-26 03:19N 23°04' E 113°29'911.7
2015-Feb-26 02:33N 23°03' E 113°19'661132179.4
2015-Feb-26 02:33N 31°21' E 121°27'6297.7
2015-Feb-26 02:32N 31°19' E 121°34'67275618.3
2015-Feb-26 02:31N 22°27' E 113°53'4319429.7
2015-Feb-26 02:31N 23°04' E 113°29'65428383.6
2015-Feb-26 02:30N 31°21' E 121°27'6547204.8
2015-Feb-26 02:24N 23°04' E 113°29'0 6.5
2015-Feb-26 02:22N 23°04' E 113°29'656815.5
2015-Feb-26 01:34N 31°19' E 121°34'656262583.7
2015-Feb-26 01:33N 23°04' E 113°29'65427394.9
2015-Feb-26 01:32N 31°21' E 121°27'65458896.0
2015-Feb-26 01:31N 23°04' E 113°29'6547117.8
2015-Feb-26 01:26N 31°21' E 121°27'6549941.3
2015-Feb-26 01:22N 23°04' E 113°29'3128026.6
2015-Feb-26 01:19N 24°46' E 118°52'3102061.0
2015-Feb-26 01:10N 22°55' E 113°36'32590.2
2015-Feb-26 01:07N 22°27' E 113°53'438632.9
2015-Feb-26 01:07N 23°04' E 113°29'316568.1
2015-Feb-26 00:33N 24°51' E 118°55'413743423.6
2015-Feb-26 00:33N 31°21' E 121°27'654471225.1
2015-Feb-26 00:33N 23°04' E 113°29'65621101.0
2015-Feb-26 00:32N 31°19' E 121°34'656107417.0
2015-Feb-26 00:31N 23°04' E 113°29'045.5
2015-Feb-26 00:31N 23°04' E 113°29'65445307.4
2015-Feb-26 00:30N 31°21' E 121°27'6716373.6
2015-Feb-26 00:24N 22°27' E 113°52'421453.7
2015-Feb-26 00:22N 23°04' E 113°29'0 0.1
2015-Feb-25 23:33N 23°04' E 113°29'656214854.0
2015-Feb-25 23:33N 31°19' E 121°34'6466.8
2015-Feb-25 23:32N 31°21' E 121°27'0 5.8
2015-Feb-25 23:32N 31°21' E 121°27'65448078.0
2015-Feb-25 23:31N 23°04' E 113°29'036.2
2015-Feb-25 23:31N 23°04' E 113°29'0 1.7
2015-Feb-25 23:22N 23°04' E 113°29'657808.9
2015-Feb-25 22:33N 31°19' E 121°34'66849.3
2015-Feb-25 22:33N 31°21' E 121°27'65416829.7
2015-Feb-25 22:31N 23°04' E 113°29'65419966.3
2015-Feb-25 22:29N 31°21' E 121°27'6545259.0
2015-Feb-25 22:21N 23°04' E 113°29'0 3.0
2015-Feb-25 22:19N 23°04' E 113°29'0 0.8
2015-Feb-25 22:10N 23°04' E 113°29'6571073.3
2015-Feb-25 21:33N 31°19' E 121°34'6765.0
2015-Feb-25 21:33N 31°21' E 121°27'0 2.6
2015-Feb-25 21:31N 31°21' E 121°27'654130896.6
2015-Feb-25 21:31N 23°04' E 113°29'0 1.6
2015-Feb-25 21:21N 23°04' E 113°29'0 2.0
2015-Feb-25 21:19N 23°04' E 113°29'0 0.8
2015-Feb-25 21:10N 23°04' E 113°29'0 0.2
2015-Feb-25 20:33N 23°04' E 113°29'654294516.5
2015-Feb-25 20:33N 31°21' E 121°27'412742040.4
2015-Feb-25 20:33N 24°51' E 118°58'41267413.5
2015-Feb-25 20:33N 31°19' E 121°34'65619371.1
2015-Feb-25 20:31N 23°04' E 113°29'656687.6
2015-Feb-25 19:34N 31°19' E 121°34'62054.0
2015-Feb-25 19:33N 31°21' E 121°27'65415399.6
2015-Feb-25 19:31N 23°04' E 113°29'0 2.7
2015-Feb-25 19:24N 23°04' E 113°29'0 0.3
2015-Feb-25 19:07N 23°04' E 113°29'6541100.0
2015-Feb-25 18:31N 31°21' E 121°27'6203.4
2015-Feb-25 18:30N 31°19' E 121°34'6567673.1
2015-Feb-25 18:24N 23°04' E 113°29'0 1.6
2015-Feb-25 18:22N 23°04' E 113°29'016.4
2015-Feb-25 18:22N 23°04' E 113°29'0140.0
2015-Feb-25 18:22N 23°04' E 113°29'117654.5
2015-Feb-25 18:22N 23°03' E 113°18'662198534.4
2015-Feb-25 18:22N 31°21' E 121°27'654816.9
2015-Feb-25 17:33N 23°04' E 113°29'6541178045.8
2015-Feb-25 17:33N 31°21' E 121°27'0 2.0
2015-Feb-25 17:32N 31°21' E 121°27'65446192.6
2015-Feb-25 17:31N 23°04' E 113°29'045.5
2015-Feb-25 17:31N 23°04' E 113°29'85493.4
2015-Feb-25 17:31N 23°02' E 113°21'718.9
2015-Feb-25 17:07N 23°04' E 113°29'65610645.6
2015-Feb-25 17:03N 31°19' E 121°34'0 0.0
2015-Feb-25 16:34N 31°19' E 121°34'656262573.1
2015-Feb-25 16:33N 23°04' E 113°29'65456094.4
2015-Feb-25 16:33N 31°21' E 121°27'0 2.0
2015-Feb-25 16:31N 31°21' E 121°27'6544322.6
2015-Feb-25 16:22N 23°04' E 113°29'018.5
2015-Feb-25 16:22N 23°04' E 113°29'0140.0
2015-Feb-25 16:22N 23°04' E 113°29'0 0.3
2015-Feb-25 15:33N 23°04' E 113°29'656236315.8
2015-Feb-25 15:33N 31°19' E 121°34'657337696.1
2015-Feb-25 15:33N 23°04' E 113°29'658118385.8
2015-Feb-25 15:33N 31°23' E 121°30'3658.3
2015-Feb-25 15:32N 31°21' E 121°27'65437998.9
2015-Feb-25 15:31N 23°04' E 113°29'0 0.5
2015-Feb-25 15:22N 23°04' E 113°29'0 3.9
2015-Feb-25 15:19N 23°04' E 113°29'6562647.6
2015-Feb-25 15:04N 32°01' E 120°34'6561283.4
2015-Feb-25 14:33N 23°04' E 113°29'654336564.3
2015-Feb-25 14:33N 31°21' E 121°27'65673822.7
2015-Feb-25 14:33N 23°01' E 113°31'658197450.4
2015-Feb-25 14:33N 31°19' E 121°34'65627801.5
2015-Feb-25 14:31N 23°04' E 113°29'045.5
2015-Feb-25 14:31N 23°04' E 113°29'65819892.4
2015-Feb-25 14:29N 32°00' E 120°39'6585759.7
2015-Feb-25 14:22N 23°04' E 113°29'0 0.1
2015-Feb-25 13:33N 23°04' E 113°29'656337571.2
2015-Feb-25 13:33N 31°19' E 121°34'660169801.5
2015-Feb-25 13:33N 22°56' E 113°33'9263.2
2015-Feb-25 13:31N 23°04' E 113°29'045.5
2015-Feb-25 13:31N 23°04' E 113°29'6639818.7
2015-Feb-25 13:27N 32°01' E 120°48'6638143.3
2015-Feb-25 13:22N 23°04' E 113°29'319229469.5
2015-Feb-25 13:22N 24°53' E 118°57'411508.4
2015-Feb-25 12:33N 31°19' E 121°34'5016422.1
2015-Feb-25 12:33N 31°55' E 120°53'66960178.0
2015-Feb-25 12:32N 22°52' E 113°34'31947775.9
2015-Feb-25 12:32N 24°51' E 118°57'413371480.0
2015-Feb-25 12:32N 31°21' E 121°27'411739768.4
2015-Feb-25 12:32N 24°53' E 118°57'31926064.6
2015-Feb-25 12:31N 23°04' E 113°29'033.3
2015-Feb-25 12:31N 23°04' E 113°29'0 2.8
2015-Feb-25 12:24N 23°04' E 113°29'0 1.0
2015-Feb-25 12:19N 23°04' E 113°29'3191346.9
2015-Feb-25 12:05N 24°53' E 118°57'319610.8
2015-Feb-25 11:33N 23°04' E 113°29'31823370.3
2015-Feb-25 11:33N 24°50' E 118°57'413212646.8
2015-Feb-25 11:32N 31°21' E 121°27'6821.3
2015-Feb-25 11:32N 31°19' E 121°34'65667521.6
2015-Feb-25 11:31N 23°04' E 113°29'3202827.6
2015-Feb-25 11:25N 24°47' E 119°00'3196866.0
2015-Feb-25 11:22N 22°47' E 113°38'66710867.9
2015-Feb-25 11:18N 31°47' E 120°59'658883.1
2015-Feb-25 10:33N 23°04' E 113°29'65681487.9
2015-Feb-25 10:33N 31°19' E 121°34'41671261.8
2015-Feb-25 10:33N 24°46' E 119°01'41668073.3
2015-Feb-25 10:32N 31°21' E 121°27'65433655.2
2015-Feb-25 10:31N 23°04' E 113°29'3194180.3
2015-Feb-25 10:27N 24°46' E 119°00'319974.4
2015-Feb-25 10:07N 23°04' E 113°29'0 0.1
2015-Feb-25 09:33N 23°04' E 113°29'656787716.7
2015-Feb-25 09:33N 31°19' E 121°34'61369.3
2015-Feb-25 09:33N 31°21' E 121°27'201060.9
2015-Feb-25 09:32N 31°39' E 121°15'429103010.5
2015-Feb-25 09:32N 24°46' E 119°01'32033886.8
2015-Feb-25 09:31N 23°04' E 113°29'017.6
2015-Feb-25 09:31N 23°04' E 113°29'0180.9
2015-Feb-25 09:31N 23°04' E 113°29'659688.5
2015-Feb-25 08:33N 31°32' E 121°22'114027.9
2015-Feb-25 08:33N 31°21' E 121°27'65416950.4
2015-Feb-25 08:31N 23°04' E 113°29'0147.2
2015-Feb-25 08:31N 23°04' E 113°29'65634754.0
2015-Feb-25 08:30N 31°19' E 121°34'41613502.9
2015-Feb-25 08:28N 24°46' E 118°60'124.3
2015-Feb-25 08:25N 24°46' E 119°01'4032164.8
2015-Feb-25 08:14N 31°07' E 121°28'64411369.8
2015-Feb-25 08:10N 23°04' E 113°29'6471053.9
2015-Feb-25 07:33N 31°11' E 121°28'10604.9
2015-Feb-25 07:32N 31°19' E 121°34'61207.7
2015-Feb-25 07:32N 31°21' E 121°27'4168228.4
2015-Feb-25 07:29N 24°46' E 119°01'4196919.3
2015-Feb-25 07:25N 31°24' E 121°31'65838207.9
2015-Feb-25 07:24N 23°04' E 113°29'0 1.5
2015-Feb-25 07:22N 23°04' E 113°29'018.5
2015-Feb-25 07:22N 23°04' E 113°29'0144.8
2015-Feb-25 07:22N 23°04' E 113°29'31954660.7
2015-Feb-25 07:21N 24°46' E 118°60'1 0.9
2015-Feb-25 06:33N 24°46' E 119°00'41653465.9
2015-Feb-25 06:32N 31°21' E 121°27'508637.4
2015-Feb-25 06:32N 31°60' E 120°49'66333128.0
2015-Feb-25 06:31N 23°04' E 113°29'0147.2
2015-Feb-25 06:31N 23°04' E 113°29'0 2.2
2015-Feb-25 06:24N 23°04' E 113°29'0 1.5
2015-Feb-25 06:22N 23°04' E 113°29'65611360.9
2015-Feb-25 06:19N 31°19' E 121°34'4163271.1
2015-Feb-25 06:11N 24°46' E 118°60'319508.1
2015-Feb-25 05:33N 23°04' E 113°29'6561181575.0
2015-Feb-25 05:33N 31°19' E 121°34'41562319.9
2015-Feb-25 05:33N 24°46' E 119°00'3209359.9
2015-Feb-25 05:31N 23°04' E 113°29'31915722.8
2015-Feb-25 05:30N 24°46' E 118°59'41674939.3
2015-Feb-25 05:29N 31°21' E 121°27'6545543.2
2015-Feb-25 05:22N 23°04' E 113°29'031.5
2015-Feb-25 05:22N 23°04' E 113°29'0 0.3
2015-Feb-25 04:33N 23°04' E 113°29'656787716.7
2015-Feb-25 04:33N 31°19' E 121°34'41510525.9
2015-Feb-25 04:31N 24°47' E 118°60'4159971.6
2015-Feb-25 04:28N 31°21' E 121°27'6545980.0
2015-Feb-25 04:22N 23°04' E 113°29'0144.8
2015-Feb-25 04:22N 23°04' E 113°29'0 1.0
2015-Feb-25 04:10N 23°04' E 113°29'0 0.1
2015-Feb-25 03:34N 23°04' E 113°29'65673851.1
2015-Feb-25 03:33N 31°19' E 121°34'416136048.8
2015-Feb-25 03:33N 24°47' E 118°59'41662399.3
2015-Feb-25 03:32N 31°21' E 121°27'65433655.0
2015-Feb-25 03:31N 23°04' E 113°29'035.7
2015-Feb-25 03:31N 23°04' E 113°29'31963764.3
2015-Feb-25 03:30N 24°47' E 118°59'4161106.9
2015-Feb-25 03:08N 31°20' E 121°32'6561142.8
2015-Feb-25 02:33N 23°04' E 113°29'318114535.0
2015-Feb-25 02:33N 24°46' E 118°59'41674920.4
2015-Feb-25 02:33N 31°19' E 121°34'6181.7
2015-Feb-25 02:31N 31°21' E 121°27'654196344.7
2015-Feb-25 02:31N 23°04' E 113°29'0142.4
2015-Feb-25 02:31N 23°04' E 113°29'31919143.6
2015-Feb-25 02:30N 24°47' E 118°60'4166542.4
2015-Feb-25 02:26N 31°20' E 121°32'65610364.9
2015-Feb-25 02:22N 23°04' E 113°29'6566042.4
2015-Feb-25 02:16N 32°01' E 120°35'6084.2
2015-Feb-25 01:33N 31°22' E 121°28'41648301.5
2015-Feb-25 01:33N 24°46' E 119°01'4161495983.4
2015-Feb-25 01:33N 31°19' E 121°34'41521024.6
2015-Feb-25 01:31N 24°47' E 119°01'32054873.2
2015-Feb-25 01:31N 23°04' E 113°29'31915102.5
2015-Feb-25 01:30N 24°46' E 118°59'4439609.4
2015-Feb-25 01:27N 32°00' E 120°41'6597600.0
2015-Feb-25 01:22N 23°04' E 113°29'0140.0
2015-Feb-25 01:22N 23°04' E 113°29'0 1.5
2015-Feb-25 01:12N 23°04' E 113°29'6571012.9
2015-Feb-25 00:33N 31°23' E 121°30'657394184.5
2015-Feb-25 00:33N 23°04' E 113°29'6561181587.3
2015-Feb-25 00:33N 31°19' E 121°34'65615650.9
2015-Feb-25 00:31N 23°04' E 113°29'32022583.9
2015-Feb-25 00:30N 24°46' E 119°01'1 9.4
2015-Feb-25 00:23N 24°47' E 119°01'3215686.2
2015-Feb-25 00:19N 23°04' E 113°29'023.8
2015-Feb-25 00:19N 23°04' E 113°29'3191264.8
2015-Feb-25 00:04N 24°45' E 119°00'441870.5
2015-Feb-24 23:33N 31°55' E 120°53'661793242.2
2015-Feb-24 23:33N 23°04' E 113°29'65694532.7
2015-Feb-24 23:33N 31°19' E 121°34'415186764.2
2015-Feb-24 23:33N 24°47' E 118°59'420188983.6
2015-Feb-24 23:33N 31°26' E 121°29'42132915.7
2015-Feb-24 23:32N 24°46' E 119°01'32016934.3
2015-Feb-24 23:31N 23°04' E 113°29'0 1.6
2015-Feb-24 23:22N 23°04' E 113°29'022.1
2015-Feb-24 23:22N 23°04' E 113°29'320575185.7
2015-Feb-24 23:22N 24°45' E 119°00'435538.3
2015-Feb-24 22:33N 31°48' E 120°56'6572366444.4
2015-Feb-24 22:33N 23°04' E 113°29'318286513.0
2015-Feb-24 22:33N 24°44' E 118°59'43768358.9
2015-Feb-24 22:33N 31°56' E 120°14'782939.5
2015-Feb-24 22:31N 31°19' E 121°34'12266.3
2015-Feb-24 22:29N 31°29' E 121°26'4235830.7
2015-Feb-24 22:24N 24°46' E 118°59'3191341.4
2015-Feb-24 22:10N 23°04' E 113°29'032.3
2015-Feb-24 22:10N 23°04' E 113°29'6421058.0
2015-Feb-24 21:33N 31°56' E 120°13'437142983.3
2015-Feb-24 21:33N 24°44' E 118°59'41875205.7
2015-Feb-24 21:33N 31°19' E 121°34'6563390.7
2015-Feb-24 21:21N 23°04' E 113°29'0 6.7
2015-Feb-24 21:19N 23°04' E 113°29'3182974.8
2015-Feb-24 21:12N 24°45' E 118°59'3194393.5
2015-Feb-24 21:08N 23°04' E 113°29'6581142.9
2015-Feb-24 20:33N 31°32' E 121°20'65936523.0
2015-Feb-24 20:32N 23°05' E 113°26'32133937.0
2015-Feb-24 20:32N 24°45' E 118°59'4365884.4
2015-Feb-24 20:27N 31°56' E 120°13'783329.3
2015-Feb-24 20:26N 31°19' E 121°34'65624364.0
2015-Feb-24 20:24N 23°04' E 113°29'3197909.8
2015-Feb-24 20:22N 24°46' E 118°59'318143298.0
2015-Feb-24 20:22N 23°04' E 113°29'659818.8
2015-Feb-24 19:33N 31°33' E 121°20'185492.5
2015-Feb-24 19:33N 31°19' E 121°34'7825426.0
2015-Feb-24 19:33N 31°56' E 120°13'598922.6
2015-Feb-24 19:33N 31°34' E 121°18'4265330.1
2015-Feb-24 19:28N 24°46' E 118°59'3185357.8
2015-Feb-24 19:24N 23°04' E 113°29'659766.2
2015-Feb-24 18:33N 31°37' E 121°16'56101386.1
2015-Feb-24 18:33N 31°56' E 120°13'64220445.6
2015-Feb-24 18:31N 23°04' E 113°29'65620540.1
2015-Feb-24 18:29N 31°22' E 121°30'7548.2
2015-Feb-24 18:28N 31°28' E 121°28'42395188.6
2015-Feb-24 18:28N 24°46' E 118°59'3185382.9
2015-Feb-24 18:24N 23°04' E 113°29'0 0.6
2015-Feb-24 18:19N 23°04' E 113°29'6566713.3
2015-Feb-24 18:13N 31°19' E 121°34'656987.1
2015-Feb-24 17:33N 23°04' E 113°29'657262943.1
2015-Feb-24 17:33N 31°23' E 121°30'51147.8
2015-Feb-24 17:33N 31°19' E 121°34'782689.4
2015-Feb-24 17:31N 31°56' E 120°13'7488699.2
2015-Feb-24 17:31N 31°22' E 121°30'656131229.1
2015-Feb-24 17:31N 23°04' E 113°29'3192135.9
2015-Feb-24 17:22N 24°46' E 118°59'435538.2
2015-Feb-24 16:33N 31°56' E 120°13'786079.5
2015-Feb-24 16:33N 31°19' E 121°34'6992.8
2015-Feb-24 16:32N 31°22' E 121°28'297.3
2015-Feb-24 16:31N 31°22' E 121°30'4188126.6
2015-Feb-24 16:28N 24°46' E 118°59'3199477.5
2015-Feb-24 16:26N 23°04' E 113°29'010.0
2015-Feb-24 16:24N 23°04' E 113°29'0 0.3
2015-Feb-24 16:19N 23°04' E 113°29'6592747.4
2015-Feb-24 16:05N 31°45' E 121°03'3364.2
2015-Feb-24 15:33N 31°22' E 121°30'4188.9
2015-Feb-24 15:32N 31°19' E 121°34'66618.4
2015-Feb-24 15:32N 31°22' E 121°28'7212993.0
2015-Feb-24 15:32N 31°56' E 120°13'43554054.5
2015-Feb-24 15:31N 24°46' E 118°59'3197351.1
2015-Feb-24 15:29N 23°04' E 113°29'0 1.5
2015-Feb-24 15:19N 23°04' E 113°29'0 0.1
2015-Feb-24 15:12N 23°04' E 113°29'656991.3
2015-Feb-24 14:33N 31°19' E 121°34'417749771.9
2015-Feb-24 14:33N 24°46' E 118°59'43641264.5
2015-Feb-24 14:32N 31°56' E 120°13'725099.3
2015-Feb-24 14:31N 31°22' E 121°28'296.0
2015-Feb-24 14:30N 31°22' E 121°30'6567157.5
2015-Feb-24 14:24N 23°04' E 113°29'0 0.2
2015-Feb-24 14:22N 23°04' E 113°29'6593372.4
2015-Feb-24 14:10N 31°52' E 120°53'6591066.5
2015-Feb-24 13:33N 23°04' E 113°29'656393859.6
2015-Feb-24 13:33N 31°19' E 121°34'6283.6
2015-Feb-24 13:32N 31°22' E 121°28'65542852.0
2015-Feb-24 13:31N 23°04' E 113°29'65614228.5
2015-Feb-24 13:28N 31°22' E 121°30'471550.7
2015-Feb-24 13:27N 31°56' E 120°52'4484469.1
2015-Feb-24 13:21N 24°40' E 118°53'312396.0
2015-Feb-24 12:33N 23°04' E 113°29'65694525.6
2015-Feb-24 12:33N 31°19' E 121°34'6177.3
2015-Feb-24 12:31N 31°22' E 121°28'50744.5
2015-Feb-24 12:27N 31°59' E 120°49'66220383.0
2015-Feb-24 12:25N 23°04' E 113°29'65614949.0
2015-Feb-24 12:22N 31°22' E 121°30'656803.6
2015-Feb-24 11:33N 23°04' E 113°29'65678769.7
2015-Feb-24 11:33N 31°19' E 121°34'6294.5
2015-Feb-24 11:32N 31°22' E 121°28'6555819.0
2015-Feb-24 11:25N 23°04' E 113°29'65615043.8
2015-Feb-24 11:22N 31°22' E 121°30'6628024.8
2015-Feb-24 11:17N 23°02' E 113°22'755.9
2015-Feb-24 11:10N 23°04' E 113°29'3 5.2
2015-Feb-24 10:33N 23°04' E 113°26'31855.6
2015-Feb-24 10:33N 23°04' E 113°29'656590779.2
2015-Feb-24 10:33N 31°19' E 121°34'6244.3
2015-Feb-24 10:32N 31°22' E 121°28'65542852.9
2015-Feb-24 10:31N 23°04' E 113°29'65913786.2
2015-Feb-24 10:28N 31°25' E 121°30'6592189.3
2015-Feb-24 10:10N 23°04' E 113°29'0 0.1
2015-Feb-24 09:33N 23°04' E 113°29'65694525.3
2015-Feb-24 09:33N 31°19' E 121°34'6562362357.0
2015-Feb-24 09:33N 23°04' E 113°30'120.5
2015-Feb-24 09:31N 23°04' E 113°29'65727191.5
2015-Feb-24 09:29N 31°60' E 120°39'513182.1
2015-Feb-24 09:28N 31°28' E 121°26'65911681.9
2015-Feb-24 09:25N 23°04' E 113°29'0 0.1
2015-Feb-24 08:33N 23°04' E 113°29'656590787.5
2015-Feb-24 08:33N 31°19' E 121°34'656787452.3
2015-Feb-24 08:33N 23°04' E 113°30'65426471.9
2015-Feb-24 08:32N 31°22' E 121°28'10565.0
2015-Feb-24 08:31N 31°31' E 121°22'6587243.9
2015-Feb-24 08:25N 23°04' E 113°29'18575.7
2015-Feb-24 08:23N 22°47' E 113°36'18762.0
2015-Feb-24 08:22N 23°04' E 113°29'64113337.5
2015-Feb-24 08:19N 31°56' E 120°13'5627814.5
2015-Feb-24 08:15N 22°34' E 120°19'379550.3
2015-Feb-24 07:33N 23°04' E 113°29'658592446.7
2015-Feb-24 07:33N 31°33' E 121°19'658789682.0
2015-Feb-24 07:33N 23°04' E 113°30'378135922.4
2015-Feb-24 07:33N 22°33' E 120°18'37117138.7
2015-Feb-24 07:32N 22°47' E 113°36'66634745.0
2015-Feb-24 07:31N 31°19' E 121°34'6567117.7
2015-Feb-24 07:25N 23°04' E 113°29'0 1.4
2015-Feb-24 07:22N 23°04' E 113°29'6552772.9
2015-Feb-24 07:08N 31°22' E 121°28'6551143.0
2015-Feb-24 06:33N 23°04' E 113°29'1425.2
2015-Feb-24 06:33N 23°04' E 113°30'65473625.1
2015-Feb-24 06:33N 31°22' E 121°28'6770.5
2015-Feb-24 06:32N 31°19' E 121°34'5347911.6
2015-Feb-24 06:28N 22°30' E 120°17'371445190.8
2015-Feb-24 06:28N 22°47' E 113°36'66934427.1
2015-Feb-24 06:27N 31°37' E 121°15'6598018.7
2015-Feb-24 06:22N 23°04' E 113°29'020.3
2015-Feb-24 06:22N 23°04' E 113°29'0 0.1
2015-Feb-24 05:33N 23°04' E 113°29'1850.5
2015-Feb-24 05:33N 23°04' E 113°30'374122485.0
2015-Feb-24 05:33N 22°32' E 120°14'53376809.0
2015-Feb-24 05:33N 31°22' E 121°28'65521426.9
2015-Feb-24 05:31N 23°04' E 113°29'18253.0
2015-Feb-24 05:27N 22°47' E 113°36'66921904.1
2015-Feb-24 05:25N 31°42' E 121°08'6593399.0
2015-Feb-24 05:13N 23°04' E 113°29'65616075.3
2015-Feb-24 05:11N 31°19' E 121°34'6561054.6
2015-Feb-24 04:33N 23°04' E 113°30'65462000.1
2015-Feb-24 04:33N 31°22' E 121°28'664140674.2
2015-Feb-24 04:32N 22°47' E 113°36'666399567.0
2015-Feb-24 04:32N 31°19' E 121°34'52946469.3
2015-Feb-24 04:32N 22°35' E 120°12'3723427.5
2015-Feb-24 04:25N 23°04' E 113°29'0 4.6
2015-Feb-24 04:24N 23°04' E 113°29'6572731.9
2015-Feb-24 04:10N 31°47' E 120°58'657788656.5
2015-Feb-24 04:10N 23°04' E 113°29'0 0.0
2015-Feb-24 03:33N 23°04' E 113°29'1833.9
2015-Feb-24 03:33N 23°04' E 113°30'6562362373.8
2015-Feb-24 03:33N 31°19' E 121°34'4513383.4
2015-Feb-24 03:33N 31°49' E 120°55'552165721.6
2015-Feb-24 03:33N 22°38' E 120°14'3742875.2
2015-Feb-24 03:25N 23°04' E 113°29'18464.9
2015-Feb-24 03:23N 22°47' E 113°36'6643596.2
2015-Feb-24 03:12N 31°22' E 121°28'65522027.6
2015-Feb-24 03:10N 23°04' E 113°29'6561077.2
2015-Feb-24 02:33N 31°19' E 121°34'5111469.6
2015-Feb-24 02:33N 31°56' E 120°52'66118307.9
2015-Feb-24 02:31N 23°04' E 113°29'65531851.2
2015-Feb-24 02:30N 31°22' E 121°28'6648990.6
2015-Feb-24 02:25N 22°47' E 113°36'181284.5
2015-Feb-24 02:24N 23°04' E 113°29'0 0.2
2015-Feb-24 02:22N 23°04' E 113°29'0 0.0
2015-Feb-24 01:33N 23°04' E 113°29'662238258.7
2015-Feb-24 01:33N 32°00' E 120°47'573820.0
2015-Feb-24 01:32N 31°19' E 121°34'658.9
2015-Feb-24 01:27N 31°22' E 121°28'6558539.8
2015-Feb-24 01:22N 23°04' E 113°29'658805.7
2015-Feb-24 00:33N 31°60' E 120°39'613295.6
2015-Feb-24 00:32N 31°19' E 121°34'65636927.5
2015-Feb-24 00:31N 23°04' E 113°29'0 0.5
2015-Feb-24 00:21N 23°04' E 113°29'0 0.0
2015-Feb-23 23:33N 23°04' E 113°29'655337022.4
2015-Feb-23 23:33N 32°00' E 120°34'6513820.2
2015-Feb-23 23:33N 31°19' E 121°34'65619059.3
2015-Feb-23 23:31N 23°04' E 113°29'6553381.6
2015-Feb-23 23:19N 31°22' E 121°28'655855.8
2015-Feb-23 22:33N 23°04' E 113°29'65628134.7
2015-Feb-23 22:32N 31°19' E 121°34'5447.4
2015-Feb-23 22:31N 31°22' E 121°28'643738.4
2015-Feb-23 22:30N 32°02' E 120°29'654692.2
2015-Feb-23 21:33N 23°04' E 113°29'658789700.8
2015-Feb-23 21:33N 31°24' E 121°31'542.9
2015-Feb-23 21:27N 31°19' E 121°34'6578293.3
2015-Feb-23 21:22N 23°04' E 113°29'0 0.1
2015-Feb-23 20:33N 23°04' E 113°29'65622724.5
2015-Feb-23 20:32N 31°19' E 121°34'0 0.0
2015-Feb-23 19:33N 31°19' E 121°34'6656058.0
2015-Feb-23 19:26N 22°54' E 113°28'1083.2
2015-Feb-23 19:19N 23°04' E 113°29'0 0.5
2015-Feb-23 19:12N 23°04' E 113°29'6561009.1
2015-Feb-23 18:33N 31°19' E 121°34'6149.8
2015-Feb-23 18:31N 31°24' E 121°31'6584333.5
2015-Feb-23 18:22N 23°04' E 113°29'0 0.4
2015-Feb-23 18:09N 23°04' E 113°29'0 0.1
2015-Feb-23 17:33N 23°04' E 113°29'6566439.2
2015-Feb-23 17:27N 31°19' E 121°34'6567385.5
2015-Feb-23 17:22N 23°04' E 113°29'2102.3
2015-Feb-23 17:20N 23°02' E 113°31'657828.8
2015-Feb-23 16:33N 31°19' E 121°34'6148.7
2015-Feb-23 16:31N 31°24' E 121°31'6586287.3
2015-Feb-23 16:24N 23°04' E 113°29'0 0.3
2015-Feb-23 16:07N 23°04' E 113°29'0 0.1
2015-Feb-23 15:33N 23°04' E 113°29'6561181658.8
2015-Feb-23 15:33N 31°19' E 121°34'6563445.1
2015-Feb-23 15:22N 23°04' E 113°29'0 0.1
2015-Feb-23 14:33N 23°04' E 113°29'656787724.9
2015-Feb-23 14:33N 31°19' E 121°34'65616187.4
2015-Feb-23 14:31N 23°04' E 113°29'0 0.1
2015-Feb-23 13:33N 23°04' E 113°29'656157546.1
2015-Feb-23 13:33N 31°19' E 121°34'65617637.0
2015-Feb-23 13:31N 23°04' E 113°29'6591632.8
2015-Feb-23 13:07N 31°39' E 121°14'2645.9
2015-Feb-23 12:33N 31°19' E 121°34'65617768.7
2015-Feb-23 12:31N 23°04' E 113°29'0 0.6
2015-Feb-23 12:24N 23°04' E 113°29'656773.0
2015-Feb-23 11:33N 31°19' E 121°34'656787719.6
2015-Feb-23 11:33N 23°04' E 113°29'0 0.2
2015-Feb-23 11:19N 23°04' E 113°29'062.0
2015-Feb-23 11:19N 23°04' E 113°29'656865.1
2015-Feb-23 10:33N 31°19' E 121°34'656590781.3
2015-Feb-23 10:33N 23°04' E 113°29'111.2
2015-Feb-23 10:30N 23°04' E 113°30'1 4.5
2015-Feb-23 10:22N 23°04' E 113°29'0 1.6
2015-Feb-23 10:19N 23°04' E 113°29'656867.0
2015-Feb-23 09:33N 31°19' E 121°34'656124377.3
2015-Feb-23 09:33N 23°04' E 113°29'0 4.8
2015-Feb-23 09:31N 23°04' E 113°29'65615247.7
2015-Feb-23 09:28N 31°20' E 121°32'65628124.3
2015-Feb-23 09:27N 23°04' E 113°30'1 7.6
2015-Feb-23 09:21N 23°04' E 113°29'0 0.0
2015-Feb-23 08:33N 23°04' E 113°29'6169.1
2015-Feb-23 08:31N 23°02' E 113°23'61018.4
2015-Feb-23 08:31N 23°04' E 113°29'656337626.2
2015-Feb-23 08:31N 31°19' E 121°34'210.0
2015-Feb-23 08:21N 31°20' E 121°32'67343264.5
2015-Feb-23 08:20N 22°27' E 113°53'4355.4
2015-Feb-23 07:33N 23°04' E 113°29'321115718.3
2015-Feb-23 07:33N 24°50' E 119°01'412296466.2
2015-Feb-23 07:33N 31°19' E 121°34'65617637.1
2015-Feb-23 07:31N 23°04' E 113°29'6571840.7
2015-Feb-23 07:09N 31°20' E 121°32'0 0.0
2015-Feb-23 06:33N 31°20' E 121°32'416136090.8
2015-Feb-23 06:33N 24°49' E 118°54'41543964.2
2015-Feb-23 06:33N 31°19' E 121°34'6564679.6
2015-Feb-23 06:24N 23°04' E 113°29'0 0.2
2015-Feb-23 06:10N 23°04' E 113°29'6561080.6
2015-Feb-23 05:33N 31°19' E 121°34'656472665.1
2015-Feb-23 05:33N 23°04' E 113°29'0 1.5
2015-Feb-23 05:31N 23°04' E 113°29'6574243.3
2015-Feb-23 05:22N 31°20' E 121°32'2 2.2
2015-Feb-23 04:33N 31°21' E 121°31'656214708.9
2015-Feb-23 04:33N 23°04' E 113°29'0 1.9
2015-Feb-23 04:31N 23°04' E 113°29'6595812.6
2015-Feb-23 04:24N 31°52' E 120°53'482177.1
2015-Feb-23 04:23N 31°19' E 121°34'5263.6
2015-Feb-23 03:33N 31°57' E 120°51'472008.0
2015-Feb-23 03:32N 31°24' E 121°31'51747.9
2015-Feb-23 03:32N 31°19' E 121°34'65743767.6
2015-Feb-23 03:31N 23°04' E 113°29'0 0.4
2015-Feb-23 03:24N 23°04' E 113°29'656773.8
2015-Feb-23 02:33N 31°19' E 121°34'656787725.2
2015-Feb-23 02:33N 23°04' E 113°29'123281.9
2015-Feb-23 02:33N 23°03' E 113°16'66932097.4
2015-Feb-23 02:32N 32°00' E 120°45'66137785.4
2015-Feb-23 02:31N 23°04' E 113°29'6583319.1
2015-Feb-23 02:19N 31°30' E 121°23'1418.1
2015-Feb-23 01:33N 31°19' E 121°34'199891.6
2015-Feb-23 01:33N 31°34' E 121°19'6594406.4
2015-Feb-23 01:24N 23°04' E 113°29'6659968.2
2015-Feb-23 01:20N 32°02' E 120°50'66527188.1
2015-Feb-23 01:19N 23°04' E 113°29'0 0.1
2015-Feb-23 00:33N 23°04' E 113°29'656107418.6
2015-Feb-23 00:33N 31°19' E 121°34'65618463.7
2015-Feb-23 00:31N 23°04' E 113°29'0 0.1
2015-Feb-22 23:33N 23°04' E 113°29'656157547.2
2015-Feb-22 23:33N 31°19' E 121°34'6563506.5
2015-Feb-22 23:22N 23°04' E 113°29'0 0.1
2015-Feb-22 22:33N 23°04' E 113°29'656139013.2
2015-Feb-22 22:33N 31°19' E 121°34'6563516.9
2015-Feb-22 22:22N 23°04' E 113°29'656812.4
2015-Feb-22 21:33N 31°19' E 121°34'6561181667.1
2015-Feb-22 21:33N 23°04' E 113°29'0 1.8
2015-Feb-22 21:31N 23°04' E 113°29'6592412.5
2015-Feb-22 21:14N 31°45' E 121°03'659959.3
2015-Feb-22 20:33N 23°04' E 113°29'65663874.6
2015-Feb-22 20:33N 31°19' E 121°34'6563624.7
2015-Feb-22 20:22N 23°04' E 113°29'0 0.1
2015-Feb-22 19:33N 23°04' E 113°29'656262593.7
2015-Feb-22 19:33N 31°19' E 121°34'65616881.1
2015-Feb-22 19:31N 23°04' E 113°29'656679.1
2015-Feb-22 18:33N 31°19' E 121°34'6564615.9
2015-Feb-22 18:24N 23°04' E 113°29'0 0.8
2015-Feb-22 18:19N 23°04' E 113°29'0 0.1
2015-Feb-22 17:33N 23°04' E 113°29'656214847.9
2015-Feb-22 17:33N 31°19' E 121°34'44530.9
2015-Feb-22 17:28N 31°48' E 120°55'6574207.1
2015-Feb-22 17:19N 23°04' E 113°29'0 0.1
2015-Feb-22 16:33N 23°04' E 113°29'65648231.5
2015-Feb-22 16:32N 31°19' E 121°34'41117821.3
2015-Feb-22 16:31N 24°53' E 118°57'318163705.6
2015-Feb-22 16:31N 23°04' E 113°29'6623369.8
2015-Feb-22 16:19N 31°57' E 120°52'436571.3
2015-Feb-22 15:33N 24°53' E 118°57'319191350.0
2015-Feb-22 15:33N 23°04' E 113°29'65647266.5
2015-Feb-22 15:32N 31°19' E 121°34'6563704.3
2015-Feb-22 15:22N 23°04' E 113°29'656814.4
2015-Feb-22 14:33N 31°19' E 121°34'411246332.1
2015-Feb-22 14:33N 24°53' E 118°57'319286947.7
2015-Feb-22 14:33N 23°04' E 113°29'0 1.2
2015-Feb-22 14:31N 23°04' E 113°29'656686.2
2015-Feb-22 13:33N 31°19' E 121°34'6562363208.1
2015-Feb-22 13:33N 23°04' E 113°29'319573895.3
2015-Feb-22 13:33N 24°53' E 118°57'3197502.3
2015-Feb-22 13:31N 23°04' E 113°29'319332.8
2015-Feb-22 12:33N 24°53' E 118°57'319382594.6
2015-Feb-22 12:33N 23°04' E 113°29'656181785.2
2015-Feb-22 12:33N 31°19' E 121°34'65618040.8
2015-Feb-22 12:31N 23°04' E 113°29'656685.2
2015-Feb-22 11:33N 31°19' E 121°34'411492664.2
2015-Feb-22 11:33N 24°53' E 118°57'319286949.6
2015-Feb-22 11:33N 23°04' E 113°29'0 1.4
2015-Feb-22 11:31N 23°04' E 113°29'319329.2
2015-Feb-22 10:33N 24°53' E 118°57'319382596.9
2015-Feb-22 10:33N 23°04' E 113°29'656181785.2
2015-Feb-22 10:33N 31°19' E 121°34'65617506.2
2015-Feb-22 10:31N 23°04' E 113°29'656682.2
2015-Feb-22 09:33N 31°19' E 121°34'65618039.6
2015-Feb-22 09:31N 23°04' E 113°29'0 0.6
2015-Feb-22 09:24N 23°04' E 113°29'0 0.1
2015-Feb-22 08:33N 23°04' E 113°29'656181796.9
2015-Feb-22 08:33N 31°19' E 121°34'6562790.2
2015-Feb-22 08:19N 23°04' E 113°29'0 0.1
2015-Feb-22 07:33N 23°04' E 113°29'656196945.3
2015-Feb-22 07:33N 31°19' E 121°34'6562760.9
2015-Feb-22 07:19N 23°04' E 113°29'0 0.1
2015-Feb-22 06:33N 23°04' E 113°29'656181795.6
2015-Feb-22 06:33N 31°19' E 121°34'65617506.3
2015-Feb-22 06:31N 23°04' E 113°29'0 0.1
2015-Feb-22 05:33N 23°04' E 113°29'310139277.9
2015-Feb-22 05:33N 24°47' E 118°48'41962813.7
2015-Feb-22 05:33N 31°19' E 121°34'65621101.2
2015-Feb-22 05:31N 23°04' E 113°29'4 4.0
2015-Feb-22 04:32N 23°03' E 113°25'66041669.4
2015-Feb-22 04:31N 31°19' E 121°34'42111137.3
2015-Feb-22 04:28N 24°43' E 118°55'3143247.3
2015-Feb-22 04:23N 23°04' E 113°29'656794.4
2015-Feb-22 03:33N 31°19' E 121°34'42389565.0
2015-Feb-22 03:33N 24°40' E 118°55'32417404.7
2015-Feb-22 03:32N 23°03' E 113°17'1175.5
2015-Feb-22 03:23N 23°04' E 113°29'313378.0
2015-Feb-22 02:33N 24°40' E 118°54'42325381.5
2015-Feb-22 02:32N 31°19' E 121°34'6574190.6
2015-Feb-22 02:23N 23°04' E 113°29'314364.6
2015-Feb-22 01:31N 24°42' E 118°55'42116287.4
2015-Feb-22 01:29N 31°19' E 121°34'422443.9
2015-Feb-22 00:32N 24°41' E 118°55'42289387.5
2015-Feb-22 00:32N 31°19' E 121°34'65694533.7
2015-Feb-22 00:32N 23°04' E 113°29'656672.2
2015-Feb-21 23:33N 31°19' E 121°34'42656838.2
2015-Feb-21 23:33N 24°38' E 118°52'310745.5
2015-Feb-21 23:08N 23°04' E 113°29'0 0.4
2015-Feb-21 23:04N 23°04' E 113°29'6561304.2
2015-Feb-21 22:33N 31°19' E 121°34'42412116.5
2015-Feb-21 22:31N 24°39' E 118°54'3125063.9
2015-Feb-21 22:28N 23°04' E 113°29'0 0.3
2015-Feb-21 22:23N 23°04' E 113°29'656798.7
2015-Feb-21 21:33N 31°19' E 121°34'426109535.6
2015-Feb-21 21:33N 24°38' E 118°52'31012275.7
2015-Feb-21 21:32N 23°04' E 113°29'0 0.1
2015-Feb-21 21:16N 23°04' E 113°29'656910.4
2015-Feb-21 20:32N 31°19' E 121°34'6568234.3
2015-Feb-21 20:28N 23°04' E 113°29'0 0.8
2015-Feb-21 20:23N 23°04' E 113°29'657799.8
2015-Feb-21 19:33N 31°19' E 121°34'65722509.9
2015-Feb-21 19:32N 23°04' E 113°29'0 0.5
2015-Feb-21 19:25N 23°04' E 113°29'656764.1
2015-Feb-21 18:33N 31°19' E 121°34'6564643.0
2015-Feb-21 18:25N 23°04' E 113°29'0 0.6
2015-Feb-21 18:23N 23°04' E 113°29'656793.6
2015-Feb-21 17:33N 31°19' E 121°34'65727805.4
2015-Feb-21 17:32N 23°04' E 113°29'0 0.5
2015-Feb-21 17:25N 23°04' E 113°29'656750.3
2015-Feb-21 16:32N 31°19' E 121°34'6565359.0
2015-Feb-21 16:25N 23°04' E 113°29'0 1.6
2015-Feb-21 16:23N 23°04' E 113°29'657799.8
2015-Feb-21 15:33N 31°19' E 121°34'6564459.1
2015-Feb-21 15:25N 23°04' E 113°29'0 0.7
2015-Feb-21 15:20N 23°04' E 113°29'657851.7
2015-Feb-21 14:33N 31°19' E 121°34'41831986.1
2015-Feb-21 14:33N 24°47' E 118°52'3131697.9
2015-Feb-21 14:22N 23°04' E 113°29'0 1.9
2015-Feb-21 14:20N 23°04' E 113°29'657845.9
2015-Feb-21 13:33N 31°19' E 121°34'41116432.6
2015-Feb-21 13:32N 24°53' E 118°57'3233632.7
2015-Feb-21 13:26N 22°54' E 113°28'10351.9
2015-Feb-21 13:25N 23°04' E 113°29'0 0.4
2015-Feb-21 13:20N 23°04' E 113°29'0 0.0
2015-Feb-21 12:32N 23°04' E 113°29'65624877.1
2015-Feb-21 12:30N 31°19' E 121°34'6567161.3
2015-Feb-21 12:25N 23°04' E 113°29'656769.7
2015-Feb-21 11:33N 31°19' E 121°34'6563663.9
2015-Feb-21 11:23N 23°04' E 113°29'0 1.7
2015-Feb-21 11:22N 23°04' E 113°29'656817.7
2015-Feb-21 10:33N 31°19' E 121°34'6563664.1
2015-Feb-21 10:23N 23°04' E 113°29'656794.7
2015-Feb-21 09:33N 31°19' E 121°34'0 0.0
2015-Feb-21 08:33N 31°19' E 121°34'65622296.1
2015-Feb-21 08:32N 23°04' E 113°29'0 0.5
2015-Feb-21 08:23N 23°04' E 113°29'312961.4
2015-Feb-21 08:03N 24°40' E 118°54'424845.7
2015-Feb-21 07:33N 31°19' E 121°34'42246007.7
2015-Feb-21 07:33N 24°41' E 118°56'3141903.9
2015-Feb-21 07:23N 23°04' E 113°29'0 3.2
2015-Feb-21 07:23N 23°04' E 113°29'656794.9
2015-Feb-21 06:33N 31°19' E 121°34'42083966.4
2015-Feb-21 06:33N 24°44' E 118°53'3131910.9
2015-Feb-21 06:23N 23°04' E 113°29'0 0.2
2015-Feb-21 06:20N 23°04' E 113°29'310399.3
2015-Feb-21 05:33N 24°47' E 118°49'419502380.5
2015-Feb-21 05:33N 31°19' E 121°34'65640746.3
2015-Feb-21 05:32N 23°04' E 113°29'0 2.3
2015-Feb-21 05:32N 23°04' E 113°29'0 0.0
2015-Feb-21 04:32N 23°04' E 113°29'65669508.4
2015-Feb-21 04:31N 31°19' E 121°34'42065672.1
2015-Feb-21 04:31N 24°46' E 118°47'3081623.0
2015-Feb-21 04:20N 23°04' E 113°29'0 0.1
2015-Feb-21 03:32N 23°04' E 113°29'010.5
2015-Feb-21 03:32N 23°04' E 113°29'6563361.6
2015-Feb-21 03:20N 31°21' E 121°32'2 9.6
2015-Feb-21 03:06N 31°19' E 121°34'0 0.1
2015-Feb-21 02:33N 31°19' E 121°34'65627479.6
2015-Feb-21 02:32N 23°04' E 113°29'031.3
2015-Feb-21 02:32N 23°04' E 113°29'3 3.4
2015-Feb-21 01:33N 23°02' E 113°31'657591573.6
2015-Feb-21 01:33N 31°19' E 121°34'65622295.8
2015-Feb-21 01:32N 23°04' E 113°29'3071119.8
2015-Feb-21 01:15N 24°46' E 118°46'420603.4
2015-Feb-21 00:33N 31°19' E 121°34'6567930.2
2015-Feb-21 00:28N 23°04' E 113°29'0 0.6
2015-Feb-21 00:23N 23°04' E 113°29'656800.1
2015-Feb-20 23:33N 31°19' E 121°34'65622295.8
2015-Feb-20 23:32N 23°04' E 113°29'0 0.3
2015-Feb-20 23:19N 23°04' E 113°29'656855.3
2015-Feb-20 22:33N 31°19' E 121°34'65620198.4
2015-Feb-20 22:31N 23°04' E 113°29'0 0.3
2015-Feb-20 22:20N 23°04' E 113°29'656839.9
2015-Feb-20 21:33N 31°19' E 121°34'65635808.5
2015-Feb-20 21:32N 23°04' E 113°29'0 0.3
2015-Feb-20 21:19N 23°04' E 113°29'656855.9
2015-Feb-20 20:33N 31°19' E 121°34'65619858.9
2015-Feb-20 20:31N 23°04' E 113°29'0 0.3
2015-Feb-20 20:20N 23°04' E 113°29'0 0.1
2015-Feb-20 19:31N 23°04' E 113°29'6564060.5
2015-Feb-20 19:22N 31°19' E 121°34'65619371.7
2015-Feb-20 19:20N 23°04' E 113°29'656844.7
2015-Feb-20 18:33N 31°19' E 121°34'65727482.9
2015-Feb-20 18:32N 23°04' E 113°29'021.9
2015-Feb-20 18:31N 23°04' E 113°29'656677.7
2015-Feb-20 17:33N 31°19' E 121°34'65723400.6
2015-Feb-20 17:32N 23°04' E 113°29'0 1.3
2015-Feb-20 17:28N 23°04' E 113°29'656713.5
2015-Feb-20 16:33N 31°19' E 121°34'65723400.8
2015-Feb-20 16:32N 23°04' E 113°29'022.7
2015-Feb-20 16:31N 23°04' E 113°29'0 0.0
2015-Feb-20 15:31N 23°04' E 113°29'0 0.5
2015-Feb-20 15:23N 23°04' E 113°29'6574235.6
2015-Feb-20 15:13N 31°19' E 121°34'0 0.0
2015-Feb-20 14:33N 31°19' E 121°34'65623399.3
2015-Feb-20 14:32N 23°04' E 113°29'013.7
2015-Feb-20 14:31N 23°04' E 113°29'656663.3
2015-Feb-20 13:32N 31°19' E 121°34'65690897.5
2015-Feb-20 13:32N 23°04' E 113°29'0 0.9
2015-Feb-20 13:28N 23°04' E 113°29'656710.9
2015-Feb-20 12:33N 31°19' E 121°34'65624616.1
2015-Feb-20 12:31N 23°04' E 113°29'0 0.2
2015-Feb-20 12:11N 23°04' E 113°29'6561048.5
2015-Feb-20 11:33N 31°19' E 121°34'6563775.3
2015-Feb-20 11:23N 23°04' E 113°29'0 1.2
2015-Feb-20 11:19N 23°04' E 113°29'656824.8
2015-Feb-20 10:32N 31°19' E 121°34'656590835.5
2015-Feb-20 10:32N 23°04' E 113°29'0 0.2
2015-Feb-20 10:16N 23°04' E 113°29'656900.3
2015-Feb-20 09:33N 31°19' E 121°34'65631509.0
2015-Feb-20 09:31N 23°04' E 113°29'0 0.2
2015-Feb-20 09:11N 23°04' E 113°29'6561057.4
2015-Feb-20 08:33N 31°19' E 121°34'65620371.8
2015-Feb-20 08:31N 23°04' E 113°29'0 0.1
2015-Feb-20 08:11N 23°04' E 113°29'6561061.6
2015-Feb-20 07:34N 31°19' E 121°34'65620730.6
2015-Feb-20 07:32N 23°04' E 113°29'022.7
2015-Feb-20 07:31N 23°04' E 113°29'656675.0
2015-Feb-20 06:33N 31°19' E 121°34'65623632.2
2015-Feb-20 06:31N 23°04' E 113°29'0 0.2
2015-Feb-20 06:20N 23°04' E 113°29'656846.5
2015-Feb-20 05:33N 31°19' E 121°34'65623870.9
2015-Feb-20 05:31N 23°04' E 113°29'0 0.1
2015-Feb-20 05:11N 23°04' E 113°29'6561049.4
2015-Feb-20 04:33N 31°19' E 121°34'65623632.3
2015-Feb-20 04:31N 23°04' E 113°29'0 0.2
2015-Feb-20 04:20N 23°04' E 113°29'656834.8
2015-Feb-20 03:32N 31°19' E 121°34'65649234.0
2015-Feb-20 03:32N 23°04' E 113°29'11208.2
2015-Feb-20 03:29N 23°06' E 113°18'11107.7
2015-Feb-20 03:23N 23°04' E 113°29'656789.6
2015-Feb-20 02:33N 31°19' E 121°34'65635273.7
2015-Feb-20 02:32N 23°04' E 113°29'010.8
2015-Feb-20 02:31N 23°04' E 113°29'656679.1
2015-Feb-20 01:33N 31°19' E 121°34'6567877.1
2015-Feb-20 01:28N 23°04' E 113°29'0 0.2
2015-Feb-20 01:08N 23°04' E 113°29'6561141.2
2015-Feb-20 00:33N 31°19' E 121°34'65617249.7
2015-Feb-20 00:31N 23°04' E 113°29'0 0.2
2015-Feb-20 00:11N 23°04' E 113°29'6561040.2
2015-Feb-19 23:33N 31°19' E 121°34'65634755.3
2015-Feb-19 23:32N 23°04' E 113°29'0 4.1
2015-Feb-19 23:31N 23°04' E 113°29'656686.2
2015-Feb-19 22:33N 31°19' E 121°34'65621883.0
2015-Feb-19 22:32N 23°04' E 113°29'0 3.6
2015-Feb-19 22:31N 23°04' E 113°29'656682.2
2015-Feb-19 21:33N 31°19' E 121°34'65617376.7
2015-Feb-19 21:31N 23°04' E 113°29'0 0.3
2015-Feb-19 21:20N 23°04' E 113°29'656828.4
2015-Feb-19 20:32N 31°19' E 121°34'65631509.7
2015-Feb-19 20:31N 23°04' E 113°29'0 0.3
2015-Feb-19 20:20N 23°04' E 113°29'656840.5
2015-Feb-19 19:33N 31°19' E 121°34'6562999.2
2015-Feb-19 19:20N 23°04' E 113°29'0 0.4
2015-Feb-19 19:10N 23°04' E 113°29'6561043.7
2015-Feb-19 18:32N 31°19' E 121°34'6561768.8
2015-Feb-19 18:10N 23°04' E 113°29'0 0.8
2015-Feb-19 18:08N 23°04' E 113°29'6561151.7
2015-Feb-19 17:33N 31°19' E 121°34'6562854.3
2015-Feb-19 17:20N 23°04' E 113°29'0 3.1
2015-Feb-19 17:19N 23°04' E 113°29'656867.9
2015-Feb-19 16:33N 31°19' E 121°34'6562854.3
2015-Feb-19 16:20N 23°04' E 113°29'656852.9
2015-Feb-19 15:33N 31°19' E 121°34'65622945.2
2015-Feb-19 15:32N 23°04' E 113°29'0 0.3
2015-Feb-19 15:22N 23°04' E 113°29'0 0.0
2015-Feb-19 14:23N 23°04' E 113°29'65632824.1
2015-Feb-19 14:21N 31°19' E 121°34'65614957.1
2015-Feb-19 14:19N 23°04' E 113°29'656867.9
2015-Feb-19 13:33N 31°19' E 121°34'65615052.4
2015-Feb-19 13:31N 23°04' E 113°29'0 0.2
2015-Feb-19 13:11N 23°04' E 113°29'6561058.8
2015-Feb-19 12:33N 31°19' E 121°34'65615051.7
2015-Feb-19 12:31N 23°04' E 113°29'0 0.6
2015-Feb-19 12:23N 23°04' E 113°29'657798.8
2015-Feb-19 11:33N 31°19' E 121°34'656139007.4
2015-Feb-19 11:33N 23°04' E 113°29'0 0.9
2015-Feb-19 11:28N 23°04' E 113°29'0 0.4
2015-Feb-19 11:20N 23°04' E 113°29'0 0.1
2015-Feb-19 10:33N 23°04' E 113°29'65622942.5
2015-Feb-19 10:31N 31°19' E 121°34'65610889.9
2015-Feb-19 10:28N 23°04' E 113°29'0 0.7
2015-Feb-19 10:23N 23°04' E 113°29'0 0.1
2015-Feb-19 09:33N 23°04' E 113°29'656590765.7
2015-Feb-19 09:33N 31°19' E 121°34'6567478.2
2015-Feb-19 09:28N 23°04' E 113°29'0 0.6
2015-Feb-19 09:23N 23°04' E 113°29'656801.1
2015-Feb-19 08:33N 31°19' E 121°34'656139009.3
2015-Feb-19 08:33N 23°04' E 113°29'0 2.3
2015-Feb-19 08:32N 23°04' E 113°29'0 0.5
2015-Feb-19 08:25N 23°04' E 113°29'6592329.7
2015-Feb-19 08:08N 32°00' E 120°41'6591139.1
2015-Feb-19 07:33N 23°04' E 113°29'65698464.9
2015-Feb-19 07:33N 31°19' E 121°34'65634250.8
2015-Feb-19 07:32N 23°04' E 113°29'66332238.5
2015-Feb-19 07:30N 32°01' E 120°47'66315591.6
2015-Feb-19 07:28N 23°04' E 113°29'0 0.1
2015-Feb-19 06:33N 23°04' E 113°29'66030863.7
2015-Feb-19 06:32N 31°54' E 120°53'6609943.7
2015-Feb-19 06:28N 23°04' E 113°29'65613901.3
2015-Feb-19 06:25N 31°19' E 121°34'65615755.7
2015-Feb-19 06:23N 23°04' E 113°29'656800.9
2015-Feb-19 05:33N 31°19' E 121°34'656168801.2
2015-Feb-19 05:33N 23°04' E 113°29'0 1.7
2015-Feb-19 05:32N 23°04' E 113°29'0 0.9
2015-Feb-19 05:28N 23°04' E 113°29'0 0.1
2015-Feb-19 04:33N 23°04' E 113°29'0 1.3
2015-Feb-19 04:32N 23°04' E 113°29'65678776.3
2015-Feb-19 04:31N 31°19' E 121°34'6562577.1
2015-Feb-19 04:16N 23°04' E 113°29'656928.9
2015-Feb-19 03:33N 31°19' E 121°34'656139007.4
2015-Feb-19 03:33N 23°04' E 113°29'0 1.6
2015-Feb-19 03:32N 23°04' E 113°29'0 0.9
2015-Feb-19 03:28N 23°04' E 113°29'656724.5
2015-Feb-19 02:33N 31°19' E 121°34'65621290.8
2015-Feb-19 02:32N 23°04' E 113°29'0 0.9
2015-Feb-19 02:28N 23°04' E 113°29'0 1.3
2015-Feb-19 02:24N 23°04' E 113°29'656772.0
2015-Feb-19 01:33N 31°19' E 121°34'656139009.2
2015-Feb-19 01:33N 23°04' E 113°29'0 1.6
2015-Feb-19 01:32N 23°04' E 113°29'0 0.9
2015-Feb-19 01:28N 23°04' E 113°29'656724.0
2015-Feb-19 00:33N 31°19' E 121°34'6564571.0
2015-Feb-19 00:25N 23°04' E 113°29'0 1.5
2015-Feb-19 00:23N 23°04' E 113°29'0 0.3
2015-Feb-19 00:12N 23°04' E 113°29'6561000.5
2015-Feb-18 23:33N 31°19' E 121°34'65633762.5
2015-Feb-18 23:32N 23°04' E 113°29'0 0.9
2015-Feb-18 23:28N 23°04' E 113°29'0 1.3
2015-Feb-18 23:24N 23°04' E 113°29'  

Dump ship's entire track history